<?xml version="1.0" encoding="UTF-8" standalone="no" ?>
<gpx xmlns="http://www.topografix.com/GPX/1/1" creator="MapSource 6.16.3" version="1.1" xmlns:xsi="http://www.w3.org/2001/XMLSchema-instance" xsi:schemaLocation="http://www.topografix.com/GPX/1/1 http://www.topografix.com/GPX/1/1/gpx.xsd">

  <metadata>
    <link href="http://www.garmin.com">
      <text>Garmin International</text>
    </link>
    <time>2016-09-07T05:28:54Z</time>
    <bounds maxlat="44.454374313354492" maxlon="10.972723960876465" minlat="44.375710487365723" minlon="10.923585891723633"/>
  </metadata>

  <trk>
    <name>ACTIVE LOG</name>
    <trkseg>
      <trkpt lat="44.454374313354492" lon="10.970749938860536">
        <ele>128</ele>
        <time>2002-12-22T07:43:03Z</time>
      </trkpt>
      <trkpt lat="44.454374313354492" lon="10.971136093139648">
        <ele>128</ele>
        <time>2002-12-22T07:43:17Z</time>
      </trkpt>
      <trkpt lat="44.454224109649658" lon="10.971693992614746">
        <ele>129</ele>
        <time>2002-12-22T07:43:32Z</time>
      </trkpt>
      <trkpt lat="44.453966617584229" lon="10.971779823303223">
        <ele>131</ele>
        <time>2002-12-22T07:43:38Z</time>
      </trkpt>
      <trkpt lat="44.45317268371582" lon="10.971972858533263">
        <ele>130</ele>
        <time>2002-12-22T07:43:52Z</time>
      </trkpt>
      <trkpt lat="44.453022480010986" lon="10.972015941515565">
        <ele>129</ele>
        <time>2002-12-22T07:43:55Z</time>
      </trkpt>
      <trkpt lat="44.452850818634033" lon="10.971865737810731">
        <ele>129</ele>
        <time>2002-12-22T07:44:00Z</time>
      </trkpt>
      <trkpt lat="44.452271461486816" lon="10.970964431762695">
        <ele>130</ele>
        <time>2002-12-22T07:44:17Z</time>
      </trkpt>
      <trkpt lat="44.451305866241455" lon="10.970599735155702">
        <ele>131</ele>
        <time>2002-12-22T07:46:09Z</time>
      </trkpt>
      <trkpt lat="44.450919628143311" lon="10.97083568572998">
        <ele>131</ele>
        <time>2002-12-22T07:46:18Z</time>
      </trkpt>
      <trkpt lat="44.45068359375" lon="10.971221923828125">
        <ele>132</ele>
        <time>2002-12-22T07:46:26Z</time>
      </trkpt>
      <trkpt lat="44.450533390045166" lon="10.97158670425415">
        <ele>133</ele>
        <time>2002-12-22T07:46:32Z</time>
      </trkpt>
      <trkpt lat="44.450211524963379" lon="10.972445011138916">
        <ele>136</ele>
        <time>2002-12-22T07:46:48Z</time>
      </trkpt>
      <trkpt lat="44.45019006729126" lon="10.972487926483154">
        <ele>137</ele>
        <time>2002-12-22T07:46:49Z</time>
      </trkpt>
      <trkpt lat="44.450039863586426" lon="10.972638130187988">
        <ele>138</ele>
        <time>2002-12-22T07:46:53Z</time>
      </trkpt>
      <trkpt lat="44.449954032897949" lon="10.972702503204346">
        <ele>138</ele>
        <time>2002-12-22T07:46:55Z</time>
      </trkpt>
      <trkpt lat="44.449760913848877" lon="10.972723960876465">
        <ele>139</ele>
        <time>2002-12-22T07:46:59Z</time>
      </trkpt>
      <trkpt lat="44.449610710144043" lon="10.972680961713195">
        <ele>140</ele>
        <time>2002-12-22T07:47:02Z</time>
      </trkpt>
      <trkpt lat="44.449503421783447" lon="10.972273265942931">
        <ele>140</ele>
        <time>2002-12-22T07:47:10Z</time>
      </trkpt>
      <trkpt lat="44.449524879455566" lon="10.972208976745605">
        <ele>140</ele>
        <time>2002-12-22T07:47:11Z</time>
      </trkpt>
      <trkpt lat="44.449846660718322" lon="10.971500873565674">
        <ele>140</ele>
        <time>2002-12-22T07:47:26Z</time>
      </trkpt>
      <trkpt lat="44.450018405914307" lon="10.971264839172363">
        <ele>140</ele>
        <time>2002-12-22T07:47:33Z</time>
      </trkpt>
      <trkpt lat="44.450104236602783" lon="10.971071720123291">
        <ele>139</ele>
        <time>2002-12-22T07:47:37Z</time>
      </trkpt>
      <trkpt lat="44.450404560193419" lon="10.970621109008789">
        <ele>140</ele>
        <time>2002-12-22T07:47:47Z</time>
      </trkpt>
      <trkpt lat="44.450361728668213" lon="10.970127582550049">
        <ele>140</ele>
        <time>2002-12-22T07:47:56Z</time>
      </trkpt>
      <trkpt lat="44.450147235766053" lon="10.969784259796143">
        <ele>140</ele>
        <time>2002-12-22T07:48:03Z</time>
      </trkpt>
      <trkpt lat="44.44969654083252" lon="10.969140529632568">
        <ele>141</ele>
        <time>2002-12-22T07:48:17Z</time>
      </trkpt>
      <trkpt lat="44.449460506439209" lon="10.96806756220758">
        <ele>142</ele>
        <time>2002-12-22T07:48:35Z</time>
      </trkpt>
      <trkpt lat="44.449031436815858" lon="10.966823101043701">
        <ele>143</ele>
        <time>2002-12-22T07:48:57Z</time>
      </trkpt>
      <trkpt lat="44.44892406463623" lon="10.966072082519531">
        <ele>146</ele>
        <time>2002-12-22T07:49:12Z</time>
      </trkpt>
      <trkpt lat="44.448709487915039" lon="10.965235233306885">
        <ele>146</ele>
        <time>2002-12-22T07:49:31Z</time>
      </trkpt>
      <trkpt lat="44.448795318603516" lon="10.964334011077881">
        <ele>147</ele>
        <time>2002-12-22T07:49:49Z</time>
      </trkpt>
      <trkpt lat="44.448902606964111" lon="10.963454162701964">
        <ele>148</ele>
        <time>2002-12-22T07:50:09Z</time>
      </trkpt>
      <trkpt lat="44.448966979980469" lon="10.962724685668945">
        <ele>151</ele>
        <time>2002-12-22T07:50:25Z</time>
      </trkpt>
      <trkpt lat="44.449074268341064" lon="10.962081039324403">
        <ele>154</ele>
        <time>2002-12-22T07:50:40Z</time>
      </trkpt>
      <trkpt lat="44.44888106547296" lon="10.961651802062988">
        <ele>157</ele>
        <time>2002-12-22T07:50:52Z</time>
      </trkpt>
      <trkpt lat="44.448730861768126" lon="10.961029529571533">
        <ele>158</ele>
        <time>2002-12-22T07:51:06Z</time>
      </trkpt>
      <trkpt lat="44.44843053817749" lon="10.960257137194276">
        <ele>158</ele>
        <time>2002-12-22T07:51:23Z</time>
      </trkpt>
      <trkpt lat="44.448130130767822" lon="10.959270000457764">
        <ele>158</ele>
        <time>2002-12-22T07:51:42Z</time>
      </trkpt>
      <trkpt lat="44.448087215423584" lon="10.958883762359619">
        <ele>156</ele>
        <time>2002-12-22T07:51:47Z</time>
      </trkpt>
      <trkpt lat="44.448087215423584" lon="10.958712100982666">
        <ele>155</ele>
        <time>2002-12-22T07:51:49Z</time>
      </trkpt>
      <trkpt lat="44.448087215423584" lon="10.958282863721251">
        <ele>154</ele>
        <time>2002-12-22T07:51:55Z</time>
      </trkpt>
      <trkpt lat="44.447765434160829" lon="10.957596302032471">
        <ele>156</ele>
        <time>2002-12-22T07:52:09Z</time>
      </trkpt>
      <trkpt lat="44.447593688964844" lon="10.956566333770752">
        <ele>156</ele>
        <time>2002-12-22T07:52:29Z</time>
      </trkpt>
      <trkpt lat="44.447422027587891" lon="10.95536470413208">
        <ele>156</ele>
        <time>2002-12-22T07:52:50Z</time>
      </trkpt>
      <trkpt lat="44.447228908538818" lon="10.954098701477051">
        <ele>159</ele>
        <time>2002-12-22T07:53:15Z</time>
      </trkpt>
      <trkpt lat="44.447100162506104" lon="10.953025817871094">
        <ele>161</ele>
        <time>2002-12-22T07:53:37Z</time>
      </trkpt>
      <trkpt lat="44.447035789489746" lon="10.952661037445068">
        <ele>163</ele>
        <time>2002-12-22T07:53:45Z</time>
      </trkpt>
      <trkpt lat="44.446971416473389" lon="10.952060222625732">
        <ele>166</ele>
        <time>2002-12-22T07:54:02Z</time>
      </trkpt>
      <trkpt lat="44.446885585784912" lon="10.951695358380675">
        <ele>170</ele>
        <time>2002-12-22T07:54:15Z</time>
      </trkpt>
      <trkpt lat="44.446821212768555" lon="10.95160961151123">
        <ele>171</ele>
        <time>2002-12-22T07:54:20Z</time>
      </trkpt>
      <trkpt lat="44.446735382080078" lon="10.951523780822754">
        <ele>172</ele>
        <time>2002-12-22T07:54:25Z</time>
      </trkpt>
      <trkpt lat="44.446606636047363" lon="10.951523780822754">
        <ele>173</ele>
        <time>2002-12-22T07:54:31Z</time>
      </trkpt>
      <trkpt lat="44.446263313293457" lon="10.951352119445801">
        <ele>177</ele>
        <time>2002-12-22T07:54:53Z</time>
      </trkpt>
      <trkpt lat="44.445984363555908" lon="10.951094627380371">
        <ele>179</ele>
        <time>2002-12-22T07:55:10Z</time>
      </trkpt>
      <trkpt lat="44.445748329162598" lon="10.951008796691895">
        <ele>181</ele>
        <time>2002-12-22T07:55:23Z</time>
      </trkpt>
      <trkpt lat="44.445533836260438" lon="10.951051712036133">
        <ele>184</ele>
        <time>2002-12-22T07:55:36Z</time>
      </trkpt>
      <trkpt lat="44.445340633392334" lon="10.950858592987061">
        <ele>187</ele>
        <time>2002-12-22T07:55:49Z</time>
      </trkpt>
      <trkpt lat="44.4451904296875" lon="10.950450897216797">
        <ele>190</ele>
        <time>2002-12-22T07:56:04Z</time>
      </trkpt>
      <trkpt lat="44.445083141326904" lon="10.949892997741699">
        <ele>192</ele>
        <time>2002-12-22T07:56:22Z</time>
      </trkpt>
      <trkpt lat="44.444804191589355" lon="10.949313640594482">
        <ele>193</ele>
        <time>2002-12-22T07:56:42Z</time>
      </trkpt>
      <trkpt lat="44.444546699523926" lon="10.948712825775146">
        <ele>193</ele>
        <time>2002-12-22T07:57:03Z</time>
      </trkpt>
      <trkpt lat="44.444332122802734" lon="10.948390960693359">
        <ele>193</ele>
        <time>2002-12-22T07:57:19Z</time>
      </trkpt>
      <trkpt lat="44.444074630737305" lon="10.948240840807557">
        <ele>193</ele>
        <time>2002-12-22T07:57:31Z</time>
      </trkpt>
      <trkpt lat="44.443645477294922" lon="10.94836950302124">
        <ele>195</ele>
        <time>2002-12-22T07:57:48Z</time>
      </trkpt>
      <trkpt lat="44.443602561950684" lon="10.94836950302124">
        <ele>195</ele>
        <time>2002-12-22T07:57:49Z</time>
      </trkpt>
      <trkpt lat="44.443538188934326" lon="10.948219299316406">
        <ele>195</ele>
        <time>2002-12-22T07:57:54Z</time>
      </trkpt>
      <trkpt lat="44.443323612213135" lon="10.947597026824951">
        <ele>197</ele>
        <time>2002-12-22T07:58:14Z</time>
      </trkpt>
      <trkpt lat="44.44293737411499" lon="10.947468280792236">
        <ele>199</ele>
        <time>2002-12-22T07:58:31Z</time>
      </trkpt>
      <trkpt lat="44.442787170410156" lon="10.947103500366211">
        <ele>200</ele>
        <time>2002-12-22T07:58:44Z</time>
      </trkpt>
      <trkpt lat="44.442873001098633" lon="10.946588516235352">
        <ele>201</ele>
        <time>2002-12-22T07:59:00Z</time>
      </trkpt>
      <trkpt lat="44.442658424377441" lon="10.94641693867743">
        <ele>201</ele>
        <time>2002-12-22T07:59:11Z</time>
      </trkpt>
      <trkpt lat="44.442250728607178" lon="10.946524059399962">
        <ele>201</ele>
        <time>2002-12-22T07:59:27Z</time>
      </trkpt>
      <trkpt lat="44.44195032119751" lon="10.946352481842041">
        <ele>201</ele>
        <time>2002-12-22T07:59:41Z</time>
      </trkpt>
      <trkpt lat="44.441864490509033" lon="10.945451259613037">
        <ele>202</ele>
        <time>2002-12-22T08:00:04Z</time>
      </trkpt>
      <trkpt lat="44.44143533706665" lon="10.944957733154297">
        <ele>203</ele>
        <time>2002-12-22T08:00:23Z</time>
      </trkpt>
      <trkpt lat="44.44094181060791" lon="10.944593036547303">
        <ele>204</ele>
        <time>2002-12-22T08:00:42Z</time>
      </trkpt>
      <trkpt lat="44.440469741821289" lon="10.94414234161377">
        <ele>208</ele>
        <time>2002-12-22T08:01:01Z</time>
      </trkpt>
      <trkpt lat="44.439976215362549" lon="10.943863391876221">
        <ele>209</ele>
        <time>2002-12-22T08:01:19Z</time>
      </trkpt>
      <trkpt lat="44.439547061920166" lon="10.943477237597108">
        <ele>211</ele>
        <time>2002-12-22T08:01:37Z</time>
      </trkpt>
      <trkpt lat="44.43920373916626" lon="10.9433913230896">
        <ele>211</ele>
        <time>2002-12-22T08:01:49Z</time>
      </trkpt>
      <trkpt lat="44.438817501068115" lon="10.943026458844543">
        <ele>211</ele>
        <time>2002-12-22T08:02:03Z</time>
      </trkpt>
      <trkpt lat="44.438431262969971" lon="10.943090915679932">
        <ele>211</ele>
        <time>2002-12-22T08:02:16Z</time>
      </trkpt>
      <trkpt lat="44.438152313232422" lon="10.94313383102417">
        <ele>211</ele>
        <time>2002-12-22T08:02:25Z</time>
      </trkpt>
      <trkpt lat="44.438045024871826" lon="10.942940711975098">
        <ele>210</ele>
        <time>2002-12-22T08:02:30Z</time>
      </trkpt>
      <trkpt lat="44.437830364331603" lon="10.942146778106689">
        <ele>210</ele>
        <time>2002-12-22T08:02:47Z</time>
      </trkpt>
      <trkpt lat="44.437465667724609" lon="10.94163179397583">
        <ele>210</ele>
        <time>2002-12-22T08:03:03Z</time>
      </trkpt>
      <trkpt lat="44.436800479888916" lon="10.941030979156494">
        <ele>210</ele>
        <time>2002-12-22T08:03:27Z</time>
      </trkpt>
      <trkpt lat="44.436371326446533" lon="10.940494537353516">
        <ele>210</ele>
        <time>2002-12-22T08:03:44Z</time>
      </trkpt>
      <trkpt lat="44.436028003692627" lon="10.939979637041688">
        <ele>210</ele>
        <time>2002-12-22T08:03:59Z</time>
      </trkpt>
      <trkpt lat="44.435470104217529" lon="10.939571941271424">
        <ele>209</ele>
        <time>2002-12-22T08:04:16Z</time>
      </trkpt>
      <trkpt lat="44.435276985168457" lon="10.939292907714844">
        <ele>209</ele>
        <time>2002-12-22T08:04:23Z</time>
      </trkpt>
      <trkpt lat="44.435062408447266" lon="10.939228534698486">
        <ele>207</ele>
        <time>2002-12-22T08:04:29Z</time>
      </trkpt>
      <trkpt lat="44.434547424316406" lon="10.939335823059082">
        <ele>205</ele>
        <time>2002-12-22T08:04:41Z</time>
      </trkpt>
      <trkpt lat="44.434332763776183" lon="10.939164161682129">
        <ele>204</ele>
        <time>2002-12-22T08:04:47Z</time>
      </trkpt>
      <trkpt lat="44.434139728546143" lon="10.938692092895508">
        <ele>202</ele>
        <time>2002-12-22T08:04:54Z</time>
      </trkpt>
      <trkpt lat="44.434096813201904" lon="10.93813419342041">
        <ele>200</ele>
        <time>2002-12-22T08:05:01Z</time>
      </trkpt>
      <trkpt lat="44.433796405792236" lon="10.937554836273193">
        <ele>197</ele>
        <time>2002-12-22T08:05:09Z</time>
      </trkpt>
      <trkpt lat="44.433624660596251" lon="10.93714714050293">
        <ele>195</ele>
        <time>2002-12-22T08:05:14Z</time>
      </trkpt>
      <trkpt lat="44.433345794677734" lon="10.936889564618468">
        <ele>194</ele>
        <time>2002-12-22T08:05:19Z</time>
      </trkpt>
      <trkpt lat="44.433045387268066" lon="10.937061309814453">
        <ele>191</ele>
        <time>2002-12-22T08:05:24Z</time>
      </trkpt>
      <trkpt lat="44.432551860809326" lon="10.937597835436463">
        <ele>191</ele>
        <time>2002-12-22T08:05:37Z</time>
      </trkpt>
      <trkpt lat="44.432015419006348" lon="10.93813419342041">
        <ele>191</ele>
        <time>2002-12-22T08:05:54Z</time>
      </trkpt>
      <trkpt lat="44.431543434038758" lon="10.938584804534912">
        <ele>191</ele>
        <time>2002-12-22T08:06:09Z</time>
      </trkpt>
      <trkpt lat="44.431178569793701" lon="10.938735008239746">
        <ele>191</ele>
        <time>2002-12-22T08:06:20Z</time>
      </trkpt>
      <trkpt lat="44.431049823760986" lon="10.938348770141602">
        <ele>191</ele>
        <time>2002-12-22T08:06:30Z</time>
      </trkpt>
      <trkpt lat="44.431135738268495" lon="10.937790870666504">
        <ele>192</ele>
        <time>2002-12-22T08:06:41Z</time>
      </trkpt>
      <trkpt lat="44.431264400482178" lon="10.93738317489624">
        <ele>194</ele>
        <time>2002-12-22T08:06:51Z</time>
      </trkpt>
      <trkpt lat="44.431436061859131" lon="10.936567783355713">
        <ele>197</ele>
        <time>2002-12-22T08:07:11Z</time>
      </trkpt>
      <trkpt lat="44.431307315826416" lon="10.936095714569092">
        <ele>198</ele>
        <time>2002-12-22T08:07:24Z</time>
      </trkpt>
      <trkpt lat="44.43096399307251" lon="10.935709476470947">
        <ele>201</ele>
        <time>2002-12-22T08:07:40Z</time>
      </trkpt>
      <trkpt lat="44.430363178253174" lon="10.935494899749756">
        <ele>204</ele>
        <time>2002-12-22T08:08:00Z</time>
      </trkpt>
      <trkpt lat="44.429869735613465" lon="10.93515157699585">
        <ele>206</ele>
        <time>2002-12-22T08:08:19Z</time>
      </trkpt>
      <trkpt lat="44.429483413696289" lon="10.935001373291016">
        <ele>208</ele>
        <time>2002-12-22T08:08:33Z</time>
      </trkpt>
      <trkpt lat="44.42916146479547" lon="10.93463659286499">
        <ele>212</ele>
        <time>2002-12-22T08:08:49Z</time>
      </trkpt>
      <trkpt lat="44.42875393666327" lon="10.934786796569824">
        <ele>213</ele>
        <time>2002-12-22T08:09:05Z</time>
      </trkpt>
      <trkpt lat="44.428389072418213" lon="10.934615135192871">
        <ele>216</ele>
        <time>2002-12-22T08:09:20Z</time>
      </trkpt>
      <trkpt lat="44.428324699401855" lon="10.934100234881043">
        <ele>218</ele>
        <time>2002-12-22T08:09:34Z</time>
      </trkpt>
      <trkpt lat="44.428045665845275" lon="10.933756828308105">
        <ele>220</ele>
        <time>2002-12-22T08:09:48Z</time>
      </trkpt>
      <trkpt lat="44.427595138549805" lon="10.933434963226318">
        <ele>222</ele>
        <time>2002-12-22T08:10:07Z</time>
      </trkpt>
      <trkpt lat="44.427187358960509" lon="10.933456420898438">
        <ele>224</ele>
        <time>2002-12-22T08:10:22Z</time>
      </trkpt>
      <trkpt lat="44.426865577697754" lon="10.933928489685059">
        <ele>225</ele>
        <time>2002-12-22T08:10:39Z</time>
      </trkpt>
      <trkpt lat="44.426543712615967" lon="10.933864116668701">
        <ele>226</ele>
        <time>2002-12-22T08:10:51Z</time>
      </trkpt>
      <trkpt lat="44.426436424255371" lon="10.933413505554199">
        <ele>227</ele>
        <time>2002-12-22T08:11:06Z</time>
      </trkpt>
      <trkpt lat="44.426200389862061" lon="10.932962894439697">
        <ele>229</ele>
        <time>2002-12-22T08:11:24Z</time>
      </trkpt>
      <trkpt lat="44.425878524780273" lon="10.93315601348877">
        <ele>229</ele>
        <time>2002-12-22T08:11:37Z</time>
      </trkpt>
      <trkpt lat="44.425427913665771" lon="10.933370590209961">
        <ele>230</ele>
        <time>2002-12-22T08:11:54Z</time>
      </trkpt>
      <trkpt lat="44.42497730255127" lon="10.933799659833312">
        <ele>231</ele>
        <time>2002-12-22T08:12:14Z</time>
      </trkpt>
      <trkpt lat="44.424505233764648" lon="10.933821201324463">
        <ele>232</ele>
        <time>2002-12-22T08:12:31Z</time>
      </trkpt>
      <trkpt lat="44.424312114715576" lon="10.933263301849365">
        <ele>234</ele>
        <time>2002-12-22T08:12:49Z</time>
      </trkpt>
      <trkpt lat="44.424269199371338" lon="10.932683860883117">
        <ele>236</ele>
        <time>2002-12-22T08:13:07Z</time>
      </trkpt>
      <trkpt lat="44.424269199371338" lon="10.932083129882813">
        <ele>239</ele>
        <time>2002-12-22T08:13:26Z</time>
      </trkpt>
      <trkpt lat="44.424033164978027" lon="10.931761264801025">
        <ele>240</ele>
        <time>2002-12-22T08:13:40Z</time>
      </trkpt>
      <trkpt lat="44.423775672912598" lon="10.931739807128906">
        <ele>242</ele>
        <time>2002-12-22T08:13:52Z</time>
      </trkpt>
      <trkpt lat="44.423410892486572" lon="10.931696891784668">
        <ele>243</ele>
        <time>2002-12-22T08:14:08Z</time>
      </trkpt>
      <trkpt lat="44.423325061798096" lon="10.931611061096191">
        <ele>244</ele>
        <time>2002-12-22T08:14:12Z</time>
      </trkpt>
      <trkpt lat="44.422917366027832" lon="10.931224822998047">
        <ele>247</ele>
        <time>2002-12-22T08:14:32Z</time>
      </trkpt>
      <trkpt lat="44.422573959454894" lon="10.93113899230957">
        <ele>248</ele>
        <time>2002-12-22T08:14:43Z</time>
      </trkpt>
      <trkpt lat="44.422187805175781" lon="10.930945873260498">
        <ele>248</ele>
        <time>2002-12-22T08:14:56Z</time>
      </trkpt>
      <trkpt lat="44.421608364209533" lon="10.930666923522949">
        <ele>248</ele>
        <time>2002-12-22T08:15:10Z</time>
      </trkpt>
      <trkpt lat="44.421329498291016" lon="10.930624008178711">
        <ele>246</ele>
        <time>2002-12-22T08:15:16Z</time>
      </trkpt>
      <trkpt lat="44.421200836077332" lon="10.930709838867188">
        <ele>245</ele>
        <time>2002-12-22T08:15:19Z</time>
      </trkpt>
      <trkpt lat="44.421114921569824" lon="10.930817127227783">
        <ele>244</ele>
        <time>2002-12-22T08:15:21Z</time>
      </trkpt>
      <trkpt lat="44.420986175537109" lon="10.931053161621094">
        <ele>242</ele>
        <time>2002-12-22T08:15:25Z</time>
      </trkpt>
      <trkpt lat="44.420642936602235" lon="10.931181907653809">
        <ele>241</ele>
        <time>2002-12-22T08:15:31Z</time>
      </trkpt>
      <trkpt lat="44.420535564422607" lon="10.93113899230957">
        <ele>241</ele>
        <time>2002-12-22T08:15:33Z</time>
      </trkpt>
      <trkpt lat="44.420256614685059" lon="10.931117534637451">
        <ele>239</ele>
        <time>2002-12-22T08:15:37Z</time>
      </trkpt>
      <trkpt lat="44.420127868652344" lon="10.93113899230957">
        <ele>239</ele>
        <time>2002-12-22T08:15:39Z</time>
      </trkpt>
      <trkpt lat="44.419763088226318" lon="10.931117534637451">
        <ele>238</ele>
        <time>2002-12-22T08:15:45Z</time>
      </trkpt>
      <trkpt lat="44.419569969177246" lon="10.931117534637451">
        <ele>237</ele>
        <time>2002-12-22T08:15:54Z</time>
      </trkpt>
      <trkpt lat="44.419698715209961" lon="10.931589603424072">
        <ele>234</ele>
        <time>2002-12-22T08:20:54Z</time>
      </trkpt>
      <trkpt lat="44.419312477111816" lon="10.930731296539307">
        <ele>233</ele>
        <time>2002-12-22T08:21:22Z</time>
      </trkpt>
      <trkpt lat="44.419183731079102" lon="10.93019493855536">
        <ele>229</ele>
        <time>2002-12-22T08:21:38Z</time>
      </trkpt>
      <trkpt lat="44.419140815734863" lon="10.929851531982422">
        <ele>228</ele>
        <time>2002-12-22T08:21:45Z</time>
      </trkpt>
      <trkpt lat="44.418926239013672" lon="10.929293632507324">
        <ele>226</ele>
        <time>2002-12-22T08:21:59Z</time>
      </trkpt>
      <trkpt lat="44.418754577636719" lon="10.92914342880249">
        <ele>225</ele>
        <time>2002-12-22T08:22:29Z</time>
      </trkpt>
      <trkpt lat="44.418625831604004" lon="10.929100513458252">
        <ele>224</ele>
        <time>2002-12-22T08:22:42Z</time>
      </trkpt>
      <trkpt lat="44.418153762817383" lon="10.928714275360107">
        <ele>222</ele>
        <time>2002-12-22T08:22:54Z</time>
      </trkpt>
      <trkpt lat="44.418003559112549" lon="10.928585529327393">
        <ele>221</ele>
        <time>2002-12-22T08:22:57Z</time>
      </trkpt>
      <trkpt lat="44.417788982391357" lon="10.928070461377501">
        <ele>219</ele>
        <time>2002-12-22T08:23:04Z</time>
      </trkpt>
      <trkpt lat="44.417638778686523" lon="10.927834510803223">
        <ele>217</ele>
        <time>2002-12-22T08:23:08Z</time>
      </trkpt>
      <trkpt lat="44.417488574981689" lon="10.927662765607238">
        <ele>216</ele>
        <time>2002-12-22T08:23:11Z</time>
      </trkpt>
      <trkpt lat="44.417145336046815" lon="10.927190780639648">
        <ele>213</ele>
        <time>2002-12-22T08:23:19Z</time>
      </trkpt>
      <trkpt lat="44.417102336883545" lon="10.92714786529541">
        <ele>213</ele>
        <time>2002-12-22T08:23:20Z</time>
      </trkpt>
      <trkpt lat="44.416801929473877" lon="10.927233695983887">
        <ele>213</ele>
        <time>2002-12-22T08:23:28Z</time>
      </trkpt>
      <trkpt lat="44.416587436571717" lon="10.927555561065674">
        <ele>212</ele>
        <time>2002-12-22T08:23:34Z</time>
      </trkpt>
      <trkpt lat="44.416265487670898" lon="10.927894609048963">
        <ele>213</ele>
        <time>2002-12-22T11:06:18Z</time>
      </trkpt>
      <trkpt lat="44.416050910949707" lon="10.92795898206532">
        <ele>214</ele>
        <time>2002-12-22T11:06:09Z</time>
      </trkpt>
      <trkpt lat="44.415814876556396" lon="10.927658574655652">
        <ele>210</ele>
        <time>2002-12-22T08:23:58Z</time>
      </trkpt>
      <trkpt lat="44.415535926818848" lon="10.927122132852674">
        <ele>213</ele>
        <time>2002-12-22T08:24:13Z</time>
      </trkpt>
      <trkpt lat="44.415450096130371" lon="10.926478402689099">
        <ele>214</ele>
        <time>2002-12-22T08:24:27Z</time>
      </trkpt>
      <trkpt lat="44.415192604064941" lon="10.926414029672742">
        <ele>214</ele>
        <time>2002-12-22T08:24:37Z</time>
      </trkpt>
      <trkpt lat="44.414806365966797" lon="10.926671521738172">
        <ele>214</ele>
        <time>2002-12-22T08:24:51Z</time>
      </trkpt>
      <trkpt lat="44.414420127868652" lon="10.92697192914784">
        <ele>216</ele>
        <time>2002-12-22T08:25:07Z</time>
      </trkpt>
      <trkpt lat="44.414055263623595" lon="10.926607232540846">
        <ele>216</ele>
        <time>2002-12-22T08:25:23Z</time>
      </trkpt>
      <trkpt lat="44.413776397705078" lon="10.92622091062367">
        <ele>218</ele>
        <time>2002-12-22T08:25:40Z</time>
      </trkpt>
      <trkpt lat="44.41347599029541" lon="10.926585691049695">
        <ele>218</ele>
        <time>2002-12-22T08:25:54Z</time>
      </trkpt>
      <trkpt lat="44.41298246383667" lon="10.92695047147572">
        <ele>220</ele>
        <time>2002-12-22T08:26:13Z</time>
      </trkpt>
      <trkpt lat="44.412510395050049" lon="10.927272420376539">
        <ele>222</ele>
        <time>2002-12-22T08:26:32Z</time>
      </trkpt>
      <trkpt lat="44.412167072296143" lon="10.927250878885388">
        <ele>222</ele>
        <time>2002-12-22T08:26:43Z</time>
      </trkpt>
      <trkpt lat="44.412081241607666" lon="10.926800267770886">
        <ele>223</ele>
        <time>2002-12-22T08:26:55Z</time>
      </trkpt>
      <trkpt lat="44.411823665723205" lon="10.926542775705457">
        <ele>225</ele>
        <time>2002-12-22T08:27:07Z</time>
      </trkpt>
      <trkpt lat="44.411458969116211" lon="10.926585691049695">
        <ele>225</ele>
        <time>2002-12-22T08:27:20Z</time>
      </trkpt>
      <trkpt lat="44.411115562543273" lon="10.926499860361218">
        <ele>226</ele>
        <time>2002-12-22T08:27:33Z</time>
      </trkpt>
      <trkpt lat="44.410708034411073" lon="10.926414029672742">
        <ele>227</ele>
        <time>2002-12-22T08:27:47Z</time>
      </trkpt>
      <trkpt lat="44.410321712493896" lon="10.926263825967908">
        <ele>227</ele>
        <time>2002-12-22T08:28:03Z</time>
      </trkpt>
      <trkpt lat="44.40997838973999" lon="10.926177995279431">
        <ele>228</ele>
        <time>2002-12-22T08:28:15Z</time>
      </trkpt>
      <trkpt lat="44.409377574920654" lon="10.925899129360914">
        <ele>229</ele>
        <time>2002-12-22T08:28:36Z</time>
      </trkpt>
      <trkpt lat="44.408798217773438" lon="10.925663011148572">
        <ele>230</ele>
        <time>2002-12-22T08:28:56Z</time>
      </trkpt>
      <trkpt lat="44.408283233642578" lon="10.925877587869763">
        <ele>232</ele>
        <time>2002-12-22T08:29:15Z</time>
      </trkpt>
      <trkpt lat="44.407832622528076" lon="10.925856130197644">
        <ele>233</ele>
        <time>2002-12-22T08:29:31Z</time>
      </trkpt>
      <trkpt lat="44.407253265380859" lon="10.926027791574597">
        <ele>234</ele>
        <time>2002-12-22T08:29:51Z</time>
      </trkpt>
      <trkpt lat="44.407081604003906" lon="10.926414029672742">
        <ele>236</ele>
        <time>2002-12-22T08:30:04Z</time>
      </trkpt>
      <trkpt lat="44.407124519348145" lon="10.927036302164197">
        <ele>237</ele>
        <time>2002-12-22T08:30:19Z</time>
      </trkpt>
      <trkpt lat="44.406802738085389" lon="10.927486913278699">
        <ele>237</ele>
        <time>2002-12-22T08:30:33Z</time>
      </trkpt>
      <trkpt lat="44.406394958496094" lon="10.928152101114392">
        <ele>236</ele>
        <time>2002-12-22T08:30:52Z</time>
      </trkpt>
      <trkpt lat="44.406244838610291" lon="10.928559796884656">
        <ele>236</ele>
        <time>2002-12-22T08:31:00Z</time>
      </trkpt>
      <trkpt lat="44.40575122833252" lon="10.929117696359754">
        <ele>234</ele>
        <time>2002-12-22T08:31:16Z</time>
      </trkpt>
      <trkpt lat="44.405708312988281" lon="10.929761426523328">
        <ele>233</ele>
        <time>2002-12-22T08:31:28Z</time>
      </trkpt>
      <trkpt lat="44.405579566955566" lon="10.930126206949353">
        <ele>233</ele>
        <time>2002-12-22T08:31:40Z</time>
      </trkpt>
      <trkpt lat="44.405171871185303" lon="10.930126206949353">
        <ele>234</ele>
        <time>2002-12-22T08:31:57Z</time>
      </trkpt>
      <trkpt lat="44.404978835955262" lon="10.929847341030836">
        <ele>237</ele>
        <time>2002-12-22T08:32:09Z</time>
      </trkpt>
      <trkpt lat="44.404656887054443" lon="10.929396729916334">
        <ele>241</ele>
        <time>2002-12-22T08:32:29Z</time>
      </trkpt>
      <trkpt lat="44.404506683349609" lon="10.929053323343396">
        <ele>244</ele>
        <time>2002-12-22T08:32:43Z</time>
      </trkpt>
      <trkpt lat="44.404377937316895" lon="10.928774373605847">
        <ele>248</ele>
        <time>2002-12-22T08:32:56Z</time>
      </trkpt>
      <trkpt lat="44.404034614562988" lon="10.928624169901013">
        <ele>251</ele>
        <time>2002-12-22T08:33:13Z</time>
      </trkpt>
      <trkpt lat="44.40399169921875" lon="10.928602712228894">
        <ele>252</ele>
        <time>2002-12-22T08:33:15Z</time>
      </trkpt>
      <trkpt lat="44.403820037841797" lon="10.928259389474988">
        <ele>255</ele>
        <time>2002-12-22T08:33:32Z</time>
      </trkpt>
      <trkpt lat="44.403626918792725" lon="10.928092002868652">
        <ele>258</ele>
        <time>2002-12-22T08:33:44Z</time>
      </trkpt>
      <trkpt lat="44.403390884399414" lon="10.927727222442627">
        <ele>261</ele>
        <time>2002-12-22T08:34:05Z</time>
      </trkpt>
      <trkpt lat="44.403069019317627" lon="10.927298069000244">
        <ele>263</ele>
        <time>2002-12-22T08:34:28Z</time>
      </trkpt>
      <trkpt lat="44.402682781219482" lon="10.92714786529541">
        <ele>264</ele>
        <time>2002-12-22T08:34:46Z</time>
      </trkpt>
      <trkpt lat="44.402167797088623" lon="10.92736235819757">
        <ele>265</ele>
        <time>2002-12-22T08:35:06Z</time>
      </trkpt>
      <trkpt lat="44.401695728302002" lon="10.92736235819757">
        <ele>267</ele>
        <time>2002-12-22T08:35:25Z</time>
      </trkpt>
      <trkpt lat="44.401288032531738" lon="10.927469730377197">
        <ele>268</ele>
        <time>2002-12-22T08:35:42Z</time>
      </trkpt>
      <trkpt lat="44.401266574859619" lon="10.927941799163818">
        <ele>268</ele>
        <time>2002-12-22T08:35:54Z</time>
      </trkpt>
      <trkpt lat="44.401051998138428" lon="10.928349494934082">
        <ele>267</ele>
        <time>2002-12-22T08:36:08Z</time>
      </trkpt>
      <trkpt lat="44.400944709777832" lon="10.928564071655273">
        <ele>267</ele>
        <time>2002-12-22T08:36:20Z</time>
      </trkpt>
      <trkpt lat="44.401202201843262" lon="10.928928935900331">
        <ele>267</ele>
        <time>2002-12-22T08:36:30Z</time>
      </trkpt>
      <trkpt lat="44.401373863220215" lon="10.929100513458252">
        <ele>266</ele>
        <time>2002-12-22T08:36:35Z</time>
      </trkpt>
      <trkpt lat="44.401416778564453" lon="10.929594039916992">
        <ele>264</ele>
        <time>2002-12-22T08:36:43Z</time>
      </trkpt>
      <trkpt lat="44.401373863220215" lon="10.929637039080262">
        <ele>265</ele>
        <time>2002-12-22T08:36:44Z</time>
      </trkpt>
      <trkpt lat="44.401288032531738" lon="10.929808616638184">
        <ele>263</ele>
        <time>2002-12-22T08:36:47Z</time>
      </trkpt>
      <trkpt lat="44.401137828826904" lon="10.930023193359375">
        <ele>263</ele>
        <time>2002-12-22T08:36:51Z</time>
      </trkpt>
      <trkpt lat="44.40098762512207" lon="10.93019493855536">
        <ele>262</ele>
        <time>2002-12-22T08:36:55Z</time>
      </trkpt>
      <trkpt lat="44.400408267974854" lon="10.931117534637451">
        <ele>260</ele>
        <time>2002-12-22T08:37:12Z</time>
      </trkpt>
      <trkpt lat="44.400386810302734" lon="10.931181907653809">
        <ele>260</ele>
        <time>2002-12-22T08:37:13Z</time>
      </trkpt>
      <trkpt lat="44.400279521942139" lon="10.931246280670166">
        <ele>260</ele>
        <time>2002-12-22T08:37:15Z</time>
      </trkpt>
      <trkpt lat="44.400129318237305" lon="10.931310737505555">
        <ele>259</ele>
        <time>2002-12-22T08:37:18Z</time>
      </trkpt>
      <trkpt lat="44.399914741516113" lon="10.931589603424072">
        <ele>258</ele>
        <time>2002-12-22T08:37:23Z</time>
      </trkpt>
      <trkpt lat="44.399850368499756" lon="10.931696891784668">
        <ele>257</ele>
        <time>2002-12-22T08:37:25Z</time>
      </trkpt>
      <trkpt lat="44.399678707122803" lon="10.932233333587646">
        <ele>256</ele>
        <time>2002-12-22T08:37:33Z</time>
      </trkpt>
      <trkpt lat="44.399271011352539" lon="10.932533740997314">
        <ele>255</ele>
        <time>2002-12-22T08:37:42Z</time>
      </trkpt>
      <trkpt lat="44.398820400238037" lon="10.933091640472412">
        <ele>253</ele>
        <time>2002-12-22T08:37:55Z</time>
      </trkpt>
      <trkpt lat="44.398219585418701" lon="10.933628082275391">
        <ele>251</ele>
        <time>2002-12-22T08:38:09Z</time>
      </trkpt>
      <trkpt lat="44.39800500869751" lon="10.934164524078369">
        <ele>248</ele>
        <time>2002-12-22T08:38:16Z</time>
      </trkpt>
      <trkpt lat="44.39725399017334" lon="10.934829711914063">
        <ele>246</ele>
        <time>2002-12-22T08:38:31Z</time>
      </trkpt>
      <trkpt lat="44.397103786468506" lon="10.935065662488341">
        <ele>246</ele>
        <time>2002-12-22T08:38:36Z</time>
      </trkpt>
      <trkpt lat="44.397060871124268" lon="10.935173034667969">
        <ele>245</ele>
        <time>2002-12-22T08:38:38Z</time>
      </trkpt>
      <trkpt lat="44.39699649810791" lon="10.935623561963439">
        <ele>246</ele>
        <time>2002-12-22T08:38:46Z</time>
      </trkpt>
      <trkpt lat="44.39673900604248" lon="10.936095714569092">
        <ele>249</ele>
        <time>2002-12-22T08:39:01Z</time>
      </trkpt>
      <trkpt lat="44.396567260846496" lon="10.936331665143371">
        <ele>252</ele>
        <time>2002-12-22T08:39:12Z</time>
      </trkpt>
      <trkpt lat="44.396524429321289" lon="10.936803817749023">
        <ele>255</ele>
        <time>2002-12-22T08:39:30Z</time>
      </trkpt>
      <trkpt lat="44.396588802337646" lon="10.937082767486572">
        <ele>258</ele>
        <time>2002-12-22T08:39:40Z</time>
      </trkpt>
      <trkpt lat="44.396631717681885" lon="10.937426090240479">
        <ele>261</ele>
        <time>2002-12-22T08:39:52Z</time>
      </trkpt>
      <trkpt lat="44.396588802337646" lon="10.938069820404053">
        <ele>263</ele>
        <time>2002-12-22T08:40:14Z</time>
      </trkpt>
      <trkpt lat="44.396610260009766" lon="10.938477516174316">
        <ele>266</ele>
        <time>2002-12-22T08:40:28Z</time>
      </trkpt>
      <trkpt lat="44.396631717681885" lon="10.938970958814025">
        <ele>269</ele>
        <time>2002-12-22T08:40:43Z</time>
      </trkpt>
      <trkpt lat="44.396653175354004" lon="10.939314365386963">
        <ele>273</ele>
        <time>2002-12-22T08:40:55Z</time>
      </trkpt>
      <trkpt lat="44.396696090698242" lon="10.939850807189941">
        <ele>276</ele>
        <time>2002-12-22T08:41:14Z</time>
      </trkpt>
      <trkpt lat="44.396696090698242" lon="10.940279960632324">
        <ele>279</ele>
        <time>2002-12-22T08:41:30Z</time>
      </trkpt>
      <trkpt lat="44.39673900604248" lon="10.940859317779541">
        <ele>282</ele>
        <time>2002-12-22T08:41:50Z</time>
      </trkpt>
      <trkpt lat="44.396545886993408" lon="10.94135276041925">
        <ele>283</ele>
        <time>2002-12-22T08:42:07Z</time>
      </trkpt>
      <trkpt lat="44.396202564239502" lon="10.941717624664307">
        <ele>286</ele>
        <time>2002-12-22T08:42:25Z</time>
      </trkpt>
      <trkpt lat="44.395880699157715" lon="10.942039489746094">
        <ele>289</ele>
        <time>2002-12-22T08:42:41Z</time>
      </trkpt>
      <trkpt lat="44.395537376403809" lon="10.942318439483643">
        <ele>291</ele>
        <time>2002-12-22T08:42:58Z</time>
      </trkpt>
      <trkpt lat="44.395279884338379" lon="10.942790508270264">
        <ele>293</ele>
        <time>2002-12-22T08:43:15Z</time>
      </trkpt>
      <trkpt lat="44.394958019256592" lon="10.943434238433838">
        <ele>296</ele>
        <time>2002-12-22T08:43:37Z</time>
      </trkpt>
      <trkpt lat="44.394958019256592" lon="10.943777561187744">
        <ele>299</ele>
        <time>2002-12-22T08:43:48Z</time>
      </trkpt>
      <trkpt lat="44.394958019256592" lon="10.944077968597412">
        <ele>300</ele>
        <time>2002-12-22T08:44:03Z</time>
      </trkpt>
      <trkpt lat="44.39476490020752" lon="10.944356918334961">
        <ele>297</ele>
        <time>2002-12-22T08:44:10Z</time>
      </trkpt>
      <trkpt lat="44.394571781158447" lon="10.944507122039795">
        <ele>295</ele>
        <time>2002-12-22T08:44:13Z</time>
      </trkpt>
      <trkpt lat="44.39450740814209" lon="10.944571495056152">
        <ele>295</ele>
        <time>2002-12-22T08:44:14Z</time>
      </trkpt>
      <trkpt lat="44.394335662946105" lon="10.944657325744629">
        <ele>293</ele>
        <time>2002-12-22T08:44:16Z</time>
      </trkpt>
      <trkpt lat="44.394056797027588" lon="10.944721698760986">
        <ele>290</ele>
        <time>2002-12-22T08:44:20Z</time>
      </trkpt>
      <trkpt lat="44.393520439043641" lon="10.944593036547303">
        <ele>291</ele>
        <time>2002-12-22T08:44:33Z</time>
      </trkpt>
      <trkpt lat="44.393241405487061" lon="10.944764614105225">
        <ele>294</ele>
        <time>2002-12-22T08:44:50Z</time>
      </trkpt>
      <trkpt lat="44.393026828765869" lon="10.945065021514893">
        <ele>297</ele>
        <time>2002-12-22T08:45:06Z</time>
      </trkpt>
      <trkpt lat="44.39274787902832" lon="10.945065021514893">
        <ele>300</ele>
        <time>2002-12-22T08:45:23Z</time>
      </trkpt>
      <trkpt lat="44.392554759979248" lon="10.944914817810059">
        <ele>304</ele>
        <time>2002-12-22T08:45:37Z</time>
      </trkpt>
      <trkpt lat="44.392404640093446" lon="10.945107936859131">
        <ele>306</ele>
        <time>2002-12-22T08:45:50Z</time>
      </trkpt>
      <trkpt lat="44.392168521881104" lon="10.945365428924561">
        <ele>310</ele>
        <time>2002-12-22T08:46:07Z</time>
      </trkpt>
      <trkpt lat="44.391889572143555" lon="10.945408260449767">
        <ele>313</ele>
        <time>2002-12-22T08:46:26Z</time>
      </trkpt>
      <trkpt lat="44.391717910766602" lon="10.945429801940918">
        <ele>315</ele>
        <time>2002-12-22T08:46:36Z</time>
      </trkpt>
      <trkpt lat="44.391632080078125" lon="10.945451259613037">
        <ele>316</ele>
        <time>2002-12-22T08:46:40Z</time>
      </trkpt>
      <trkpt lat="44.391310214996338" lon="10.945429801940918">
        <ele>320</ele>
        <time>2002-12-22T08:47:02Z</time>
      </trkpt>
      <trkpt lat="44.390945434570313" lon="10.945558464154601">
        <ele>322</ele>
        <time>2002-12-22T08:47:23Z</time>
      </trkpt>
      <trkpt lat="44.390945434570313" lon="10.94538688659668">
        <ele>324</ele>
        <time>2002-12-22T08:47:30Z</time>
      </trkpt>
      <trkpt lat="44.391031265258789" lon="10.945343971252441">
        <ele>324</ele>
        <time>2002-12-22T08:47:34Z</time>
      </trkpt>
      <trkpt lat="44.391138637438416" lon="10.94512939453125">
        <ele>326</ele>
        <time>2002-12-22T08:47:47Z</time>
      </trkpt>
      <trkpt lat="44.391117095947266" lon="10.945086479187012">
        <ele>327</ele>
        <time>2002-12-22T08:47:49Z</time>
      </trkpt>
      <trkpt lat="44.390816688537598" lon="10.944936275482178">
        <ele>330</ele>
        <time>2002-12-22T08:48:05Z</time>
      </trkpt>
      <trkpt lat="44.390645027160645" lon="10.944614410400391">
        <ele>334</ele>
        <time>2002-12-22T08:48:20Z</time>
      </trkpt>
      <trkpt lat="44.390494823455811" lon="10.944421291351318">
        <ele>337</ele>
        <time>2002-12-22T08:48:32Z</time>
      </trkpt>
      <trkpt lat="44.390215873718262" lon="10.944228172302246">
        <ele>339</ele>
        <time>2002-12-22T08:48:50Z</time>
      </trkpt>
      <trkpt lat="44.390172958374023" lon="10.944206714630127">
        <ele>340</ele>
        <time>2002-12-22T08:48:54Z</time>
      </trkpt>
      <trkpt lat="44.390087127685547" lon="10.943927764892578">
        <ele>343</ele>
        <time>2002-12-22T08:49:06Z</time>
      </trkpt>
      <trkpt lat="44.390172958374023" lon="10.943498611450195">
        <ele>347</ele>
        <time>2002-12-22T08:49:21Z</time>
      </trkpt>
      <trkpt lat="44.390430534258485" lon="10.943155288696289">
        <ele>350</ele>
        <time>2002-12-22T08:49:39Z</time>
      </trkpt>
      <trkpt lat="44.390709400177002" lon="10.943090915679932">
        <ele>353</ele>
        <time>2002-12-22T08:49:53Z</time>
      </trkpt>
      <trkpt lat="44.390966892242432" lon="10.94313383102417">
        <ele>357</ele>
        <time>2002-12-22T08:50:07Z</time>
      </trkpt>
      <trkpt lat="44.3912672996521" lon="10.94313383102417">
        <ele>359</ele>
        <time>2002-12-22T08:50:23Z</time>
      </trkpt>
      <trkpt lat="44.391245758160949" lon="10.942940711975098">
        <ele>361</ele>
        <time>2002-12-22T08:50:31Z</time>
      </trkpt>
      <trkpt lat="44.391031265258789" lon="10.94264030456543">
        <ele>364</ele>
        <time>2002-12-22T08:50:48Z</time>
      </trkpt>
      <trkpt lat="44.390838062390685" lon="10.942168235778809">
        <ele>366</ele>
        <time>2002-12-22T08:51:08Z</time>
      </trkpt>
      <trkpt lat="44.390730941668153" lon="10.941975116729736">
        <ele>370</ele>
        <time>2002-12-22T08:51:17Z</time>
      </trkpt>
      <trkpt lat="44.390537738800049" lon="10.941588878631592">
        <ele>373</ele>
        <time>2002-12-22T08:51:35Z</time>
      </trkpt>
      <trkpt lat="44.390451908111572" lon="10.941288471221924">
        <ele>376</ele>
        <time>2002-12-22T08:51:47Z</time>
      </trkpt>
      <trkpt lat="44.3902587890625" lon="10.941052436828613">
        <ele>378</ele>
        <time>2002-12-22T08:52:05Z</time>
      </trkpt>
      <trkpt lat="44.390215873718262" lon="10.941009521484375">
        <ele>379</ele>
        <time>2002-12-22T08:52:08Z</time>
      </trkpt>
      <trkpt lat="44.389979839324951" lon="10.940730571746826">
        <ele>382</ele>
        <time>2002-12-22T08:52:29Z</time>
      </trkpt>
      <trkpt lat="44.389894008636475" lon="10.940601825714111">
        <ele>382</ele>
        <time>2002-12-22T08:52:36Z</time>
      </trkpt>
      <trkpt lat="44.389808177947998" lon="10.940515995025635">
        <ele>384</ele>
        <time>2002-12-22T08:52:42Z</time>
      </trkpt>
      <trkpt lat="44.389636516571045" lon="10.940236961469054">
        <ele>388</ele>
        <time>2002-12-22T08:52:56Z</time>
      </trkpt>
      <trkpt lat="44.389336109161377" lon="10.940129840746522">
        <ele>391</ele>
        <time>2002-12-22T08:53:13Z</time>
      </trkpt>
      <trkpt lat="44.389185905456543" lon="10.940151214599609">
        <ele>393</ele>
        <time>2002-12-22T08:53:21Z</time>
      </trkpt>
      <trkpt lat="44.388928413391113" lon="10.940258502960205">
        <ele>397</ele>
        <time>2002-12-22T08:53:36Z</time>
      </trkpt>
      <trkpt lat="44.388735294342041" lon="10.940301418304443">
        <ele>399</ele>
        <time>2002-12-22T08:53:47Z</time>
      </trkpt>
      <trkpt lat="44.388649463653564" lon="10.93989372253418">
        <ele>402</ele>
        <time>2002-12-22T08:54:05Z</time>
      </trkpt>
      <trkpt lat="44.388585090637207" lon="10.93963623046875">
        <ele>404</ele>
        <time>2002-12-22T08:54:16Z</time>
      </trkpt>
      <trkpt lat="44.388349140062928" lon="10.939807891845703">
        <ele>406</ele>
        <time>2002-12-22T08:54:28Z</time>
      </trkpt>
      <trkpt lat="44.388220310211182" lon="10.940022468566895">
        <ele>409</ele>
        <time>2002-12-22T08:54:37Z</time>
      </trkpt>
      <trkpt lat="44.387962818145752" lon="10.940151214599609">
        <ele>412</ele>
        <time>2002-12-22T08:54:56Z</time>
      </trkpt>
      <trkpt lat="44.387705326080322" lon="10.939979637041688">
        <ele>415</ele>
        <time>2002-12-22T08:55:18Z</time>
      </trkpt>
      <trkpt lat="44.387447834014893" lon="10.939872264862061">
        <ele>418</ele>
        <time>2002-12-22T08:55:34Z</time>
      </trkpt>
      <trkpt lat="44.387190258130431" lon="10.93989372253418">
        <ele>421</ele>
        <time>2002-12-22T08:55:48Z</time>
      </trkpt>
      <trkpt lat="44.386975765228271" lon="10.940151214599609">
        <ele>423</ele>
        <time>2002-12-22T08:56:05Z</time>
      </trkpt>
      <trkpt lat="44.386954307556152" lon="10.940151214599609">
        <ele>424</ele>
        <time>2002-12-22T08:56:07Z</time>
      </trkpt>
      <trkpt lat="44.386889934539795" lon="10.939915180206299">
        <ele>424</ele>
        <time>2002-12-22T08:56:18Z</time>
      </trkpt>
      <trkpt lat="44.387125968933105" lon="10.939786434173584">
        <ele>425</ele>
        <time>2002-12-22T08:56:35Z</time>
      </trkpt>
      <trkpt lat="44.387404918670654" lon="10.939614772796631">
        <ele>425</ele>
        <time>2002-12-22T08:56:51Z</time>
      </trkpt>
      <trkpt lat="44.387662410736084" lon="10.939400196075439">
        <ele>426</ele>
        <time>2002-12-22T08:57:05Z</time>
      </trkpt>
      <trkpt lat="44.387919902801514" lon="10.939207077026367">
        <ele>427</ele>
        <time>2002-12-22T08:57:20Z</time>
      </trkpt>
      <trkpt lat="44.387962818145752" lon="10.938756465911865">
        <ele>430</ele>
        <time>2002-12-22T08:57:37Z</time>
      </trkpt>
      <trkpt lat="44.388091564178467" lon="10.938305938616395">
        <ele>431</ele>
        <time>2002-12-22T08:57:54Z</time>
      </trkpt>
      <trkpt lat="44.388220310211182" lon="10.938241481781006">
        <ele>432</ele>
        <time>2002-12-22T08:58:00Z</time>
      </trkpt>
      <trkpt lat="44.388220310211182" lon="10.938091278076172">
        <ele>434</ele>
        <time>2002-12-22T08:58:08Z</time>
      </trkpt>
      <trkpt lat="44.388177394866943" lon="10.938048362731934">
        <ele>434</ele>
        <time>2002-12-22T08:58:11Z</time>
      </trkpt>
      <trkpt lat="44.387941360473633" lon="10.93813419342041">
        <ele>438</ele>
        <time>2002-12-22T08:58:25Z</time>
      </trkpt>
      <trkpt lat="44.387705326080322" lon="10.938348770141602">
        <ele>441</ele>
        <time>2002-12-22T08:58:44Z</time>
      </trkpt>
      <trkpt lat="44.387533664703369" lon="10.938348770141602">
        <ele>444</ele>
        <time>2002-12-22T08:59:02Z</time>
      </trkpt>
      <trkpt lat="44.387533664703369" lon="10.93785515986383">
        <ele>445</ele>
        <time>2002-12-22T08:59:21Z</time>
      </trkpt>
      <trkpt lat="44.387340461835265" lon="10.937705039978027">
        <ele>448</ele>
        <time>2002-12-22T08:59:32Z</time>
      </trkpt>
      <trkpt lat="44.387297630310059" lon="10.937790870666504">
        <ele>450</ele>
        <time>2002-12-22T08:59:37Z</time>
      </trkpt>
      <trkpt lat="44.387168884277344" lon="10.938177108764648">
        <ele>454</ele>
        <time>2002-12-22T08:59:56Z</time>
      </trkpt>
      <trkpt lat="44.386825561523438" lon="10.938348770141602">
        <ele>456</ele>
        <time>2002-12-22T09:00:16Z</time>
      </trkpt>
      <trkpt lat="44.386396408081055" lon="10.938220024108887">
        <ele>456</ele>
        <time>2002-12-22T09:00:34Z</time>
      </trkpt>
      <trkpt lat="44.385924339294434" lon="10.938198566436768">
        <ele>455</ele>
        <time>2002-12-22T09:00:48Z</time>
      </trkpt>
      <trkpt lat="44.385452270507813" lon="10.938327312469482">
        <ele>455</ele>
        <time>2002-12-22T09:01:03Z</time>
      </trkpt>
      <trkpt lat="44.384980201721191" lon="10.938305938616395">
        <ele>453</ele>
        <time>2002-12-22T09:17:37Z</time>
      </trkpt>
      <trkpt lat="44.384572505950928" lon="10.938198566436768">
        <ele>452</ele>
        <time>2002-12-22T09:17:46Z</time>
      </trkpt>
      <trkpt lat="44.38401460647583" lon="10.938327312469482">
        <ele>449</ele>
        <time>2002-12-22T09:17:54Z</time>
      </trkpt>
      <trkpt lat="44.383928775787354" lon="10.938370227813721">
        <ele>449</ele>
        <time>2002-12-22T09:17:55Z</time>
      </trkpt>
      <trkpt lat="44.383649826049805" lon="10.938456058502197">
        <ele>448</ele>
        <time>2002-12-22T09:17:58Z</time>
      </trkpt>
      <trkpt lat="44.383370876312256" lon="10.938498973846436">
        <ele>445</ele>
        <time>2002-12-22T09:18:01Z</time>
      </trkpt>
      <trkpt lat="44.382984638214111" lon="10.938735008239746">
        <ele>441</ele>
        <time>2002-12-22T09:18:05Z</time>
      </trkpt>
      <trkpt lat="44.382555484771729" lon="10.939185619354248">
        <ele>437</ele>
        <time>2002-12-22T09:18:10Z</time>
      </trkpt>
      <trkpt lat="44.382190704345703" lon="10.939314365386963">
        <ele>438</ele>
        <time>2002-12-22T09:18:15Z</time>
      </trkpt>
      <trkpt lat="44.382018959149718" lon="10.939443111419678">
        <ele>438</ele>
        <time>2002-12-22T09:18:20Z</time>
      </trkpt>
      <trkpt lat="44.381675720214844" lon="10.939958095550537">
        <ele>442</ele>
        <time>2002-12-22T09:18:36Z</time>
      </trkpt>
      <trkpt lat="44.381353938952088" lon="10.940279960632324">
        <ele>445</ele>
        <time>2002-12-22T09:18:51Z</time>
      </trkpt>
      <trkpt lat="44.380924701690674" lon="10.940430164337158">
        <ele>447</ele>
        <time>2002-12-22T09:19:12Z</time>
      </trkpt>
      <trkpt lat="44.380452632904053" lon="10.940494537353516">
        <ele>450</ele>
        <time>2002-12-22T09:19:33Z</time>
      </trkpt>
      <trkpt lat="44.379894733428955" lon="10.940730571746826">
        <ele>452</ele>
        <time>2002-12-22T09:19:55Z</time>
      </trkpt>
      <trkpt lat="44.379315376281738" lon="10.941009521484375">
        <ele>454</ele>
        <time>2002-12-22T09:20:18Z</time>
      </trkpt>
      <trkpt lat="44.378693103790283" lon="10.941267013549805">
        <ele>457</ele>
        <time>2002-12-22T09:20:41Z</time>
      </trkpt>
      <trkpt lat="44.378264034166932" lon="10.941438674926758">
        <ele>460</ele>
        <time>2002-12-22T09:20:57Z</time>
      </trkpt>
      <trkpt lat="44.377942085266113" lon="10.941460132598877">
        <ele>463</ele>
        <time>2002-12-22T09:21:11Z</time>
      </trkpt>
      <trkpt lat="44.37753438949585" lon="10.941696166992188">
        <ele>467</ele>
        <time>2002-12-22T09:21:30Z</time>
      </trkpt>
      <trkpt lat="44.377384185791016" lon="10.941760540008545">
        <ele>467</ele>
        <time>2002-12-22T09:21:39Z</time>
      </trkpt>
      <trkpt lat="44.377341270446777" lon="10.941846370697021">
        <ele>469</ele>
        <time>2002-12-22T09:21:43Z</time>
      </trkpt>
      <trkpt lat="44.377126693725586" lon="10.942339897155762">
        <ele>471</ele>
        <time>2002-12-22T09:22:03Z</time>
      </trkpt>
      <trkpt lat="44.376804828643799" lon="10.942811965942383">
        <ele>473</ele>
        <time>2002-12-22T09:22:24Z</time>
      </trkpt>
      <trkpt lat="44.376482963562012" lon="10.943090915679932">
        <ele>475</ele>
        <time>2002-12-22T09:22:40Z</time>
      </trkpt>
      <trkpt lat="44.376161098480225" lon="10.943520069122314">
        <ele>478</ele>
        <time>2002-12-22T09:22:58Z</time>
      </trkpt>
      <trkpt lat="44.375839233398438" lon="10.94418534077704">
        <ele>478</ele>
        <time>2002-12-22T09:23:17Z</time>
      </trkpt>
      <trkpt lat="44.375710487365723" lon="10.944850360974669">
        <ele>481</ele>
        <time>2002-12-22T09:23:35Z</time>
      </trkpt>
      <trkpt lat="44.375903606414795" lon="10.94538688659668">
        <ele>484</ele>
        <time>2002-12-22T09:23:54Z</time>
      </trkpt>
      <trkpt lat="44.376161098480225" lon="10.945644378662109">
        <ele>487</ele>
        <time>2002-12-22T09:24:07Z</time>
      </trkpt>
      <trkpt lat="44.376482963562012" lon="10.945901870727539">
        <ele>489</ele>
        <time>2002-12-22T09:24:27Z</time>
      </trkpt>
      <trkpt lat="44.376633167266846" lon="10.946052074432373">
        <ele>488</ele>
        <time>2002-12-22T09:24:43Z</time>
      </trkpt>
      <trkpt lat="44.376633167266846" lon="10.946052074432373">
        <ele>488</ele>
        <time>2002-12-22T09:24:45Z</time>
      </trkpt>
      <trkpt lat="44.376676082611084" lon="10.946245193481445">
        <ele>487</ele>
        <time>2002-12-22T09:24:54Z</time>
      </trkpt>
      <trkpt lat="44.376375675201416" lon="10.946567058563232">
        <ele>485</ele>
        <time>2002-12-22T09:25:12Z</time>
      </trkpt>
      <trkpt lat="44.376354217529297" lon="10.946609973907471">
        <ele>484</ele>
        <time>2002-12-22T09:25:14Z</time>
      </trkpt>
      <trkpt lat="44.376439964398742" lon="10.946717262268066">
        <ele>483</ele>
        <time>2002-12-22T09:25:18Z</time>
      </trkpt>
      <trkpt lat="44.376740539446473" lon="10.946781635284424">
        <ele>478</ele>
        <time>2002-12-22T09:25:25Z</time>
      </trkpt>
      <trkpt lat="44.376933574676514" lon="10.946846008300781">
        <ele>476</ele>
        <time>2002-12-22T09:25:29Z</time>
      </trkpt>
      <trkpt lat="44.37701940536499" lon="10.94688892364502">
        <ele>475</ele>
        <time>2002-12-22T09:25:31Z</time>
      </trkpt>
      <trkpt lat="44.377255439758301" lon="10.947017669677734">
        <ele>474</ele>
        <time>2002-12-22T09:25:35Z</time>
      </trkpt>
      <trkpt lat="44.377706134691834" lon="10.947382533922791">
        <ele>472</ele>
        <time>2002-12-22T09:25:42Z</time>
      </trkpt>
      <trkpt lat="44.377942085266113" lon="10.947575569152832">
        <ele>471</ele>
        <time>2002-12-22T09:25:46Z</time>
      </trkpt>
      <trkpt lat="44.377985000610352" lon="10.947983264923096">
        <ele>470</ele>
        <time>2002-12-22T09:25:53Z</time>
      </trkpt>
      <trkpt lat="44.377813339233398" lon="10.948669910430908">
        <ele>469</ele>
        <time>2002-12-22T09:26:10Z</time>
      </trkpt>
      <trkpt lat="44.377577304840088" lon="10.949077606201172">
        <ele>468</ele>
        <time>2002-12-22T09:39:40Z</time>
      </trkpt>
      <trkpt lat="44.377470016479492" lon="10.949935913085937">
        <ele>468</ele>
        <time>2002-12-22T09:39:57Z</time>
      </trkpt>
      <trkpt lat="44.377405559644103" lon="10.950665473937988">
        <ele>470</ele>
        <time>2002-12-22T09:40:14Z</time>
      </trkpt>
      <trkpt lat="44.377233982086182" lon="10.951159000396729">
        <ele>470</ele>
        <time>2002-12-22T09:40:28Z</time>
      </trkpt>
      <trkpt lat="44.377233982086182" lon="10.951223373413086">
        <ele>470</ele>
        <time>2002-12-22T09:40:44Z</time>
      </trkpt>
      <trkpt lat="44.377233982086182" lon="10.951244831085205">
        <ele>471</ele>
        <time>2002-12-22T09:41:09Z</time>
      </trkpt>
      <trkpt lat="44.377341270446777" lon="10.951459407806396">
        <ele>467</ele>
        <time>2002-12-22T09:41:17Z</time>
      </trkpt>
      <trkpt lat="44.377362728118896" lon="10.951438033953309">
        <ele>466</ele>
        <time>2002-12-22T09:41:18Z</time>
      </trkpt>
      <trkpt lat="44.377448558807373" lon="10.951309204101563">
        <ele>463</ele>
        <time>2002-12-22T09:41:21Z</time>
      </trkpt>
      <trkpt lat="44.377577304840088" lon="10.951180541887879">
        <ele>460</ele>
        <time>2002-12-22T09:41:26Z</time>
      </trkpt>
      <trkpt lat="44.377706134691834" lon="10.951030338183045">
        <ele>456</ele>
        <time>2002-12-22T09:41:32Z</time>
      </trkpt>
      <trkpt lat="44.377834796905518" lon="10.950815677642822">
        <ele>453</ele>
        <time>2002-12-22T09:41:41Z</time>
      </trkpt>
      <trkpt lat="44.377856338396668" lon="10.950665473937988">
        <ele>450</ele>
        <time>2002-12-22T09:41:48Z</time>
      </trkpt>
      <trkpt lat="44.377856338396668" lon="10.950644016265869">
        <ele>450</ele>
        <time>2002-12-22T09:41:49Z</time>
      </trkpt>
      <trkpt lat="44.377877712249756" lon="10.950558185577393">
        <ele>447</ele>
        <time>2002-12-22T09:41:53Z</time>
      </trkpt>
      <trkpt lat="44.377899169921875" lon="10.950472438707948">
        <ele>442</ele>
        <time>2002-12-22T09:41:58Z</time>
      </trkpt>
      <trkpt lat="44.377942085266113" lon="10.950322235003114">
        <ele>438</ele>
        <time>2002-12-22T09:42:05Z</time>
      </trkpt>
      <trkpt lat="44.378006458282471" lon="10.950171863660216">
        <ele>435</ele>
        <time>2002-12-22T09:42:14Z</time>
      </trkpt>
      <trkpt lat="44.37802791595459" lon="10.950193405151367">
        <ele>432</ele>
        <time>2002-12-22T09:42:21Z</time>
      </trkpt>
      <trkpt lat="44.378092288970947" lon="10.950214862823486">
        <ele>428</ele>
        <time>2002-12-22T09:42:26Z</time>
      </trkpt>
      <trkpt lat="44.378156661987305" lon="10.950193405151367">
        <ele>426</ele>
        <time>2002-12-22T09:42:30Z</time>
      </trkpt>
      <trkpt lat="44.378457069396973" lon="10.949957370758057">
        <ele>424</ele>
        <time>2002-12-22T09:42:53Z</time>
      </trkpt>
      <trkpt lat="44.3785644415766" lon="10.949828624725342">
        <ele>423</ele>
        <time>2002-12-22T09:43:08Z</time>
      </trkpt>
      <trkpt lat="44.378628730773926" lon="10.949850082397461">
        <ele>422</ele>
        <time>2002-12-22T09:44:03Z</time>
      </trkpt>
      <trkpt lat="44.378650188446045" lon="10.949828624725342">
        <ele>422</ele>
        <time>2002-12-22T09:44:12Z</time>
      </trkpt>
      <trkpt lat="44.378907680511475" lon="10.949613964185119">
        <ele>419</ele>
        <time>2002-12-22T09:44:30Z</time>
      </trkpt>
      <trkpt lat="44.37901496887207" lon="10.949506759643555">
        <ele>415</ele>
        <time>2002-12-22T09:44:37Z</time>
      </trkpt>
      <trkpt lat="44.37901496887207" lon="10.949485301971436">
        <ele>415</ele>
        <time>2002-12-22T09:44:38Z</time>
      </trkpt>
      <trkpt lat="44.379057884216309" lon="10.949442386627197">
        <ele>414</ele>
        <time>2002-12-22T09:44:40Z</time>
      </trkpt>
      <trkpt lat="44.379143714904785" lon="10.949356639757752">
        <ele>411</ele>
        <time>2002-12-22T09:44:45Z</time>
      </trkpt>
      <trkpt lat="44.379165172576904" lon="10.949335098266602">
        <ele>411</ele>
        <time>2002-12-22T09:44:46Z</time>
      </trkpt>
      <trkpt lat="44.379208087921143" lon="10.949292182922363">
        <ele>410</ele>
        <time>2002-12-22T09:44:48Z</time>
      </trkpt>
      <trkpt lat="44.379401206970215" lon="10.949099063873291">
        <ele>406</ele>
        <time>2002-12-22T09:44:56Z</time>
      </trkpt>
      <trkpt lat="44.379508495330811" lon="10.948948860168457">
        <ele>403</ele>
        <time>2002-12-22T09:45:01Z</time>
      </trkpt>
      <trkpt lat="44.379551410675049" lon="10.948798740282655">
        <ele>400</ele>
        <time>2002-12-22T09:45:10Z</time>
      </trkpt>
      <trkpt lat="44.379551410675049" lon="10.948798740282655">
        <ele>400</ele>
        <time>2002-12-22T09:45:11Z</time>
      </trkpt>
      <trkpt lat="44.379572868347168" lon="10.948755741119385">
        <ele>398</ele>
        <time>2002-12-22T09:45:13Z</time>
      </trkpt>
      <trkpt lat="44.379615783691406" lon="10.948712825775146">
        <ele>397</ele>
        <time>2002-12-22T09:45:17Z</time>
      </trkpt>
      <trkpt lat="44.379744529724121" lon="10.948648536577821">
        <ele>394</ele>
        <time>2002-12-22T09:45:34Z</time>
      </trkpt>
      <trkpt lat="44.379808902740479" lon="10.94862699508667">
        <ele>391</ele>
        <time>2002-12-22T09:45:44Z</time>
      </trkpt>
      <trkpt lat="44.379980564117432" lon="10.949506759643555">
        <ele>367</ele>
        <time>2002-12-22T09:52:29Z</time>
      </trkpt>
      <trkpt lat="44.380066394805908" lon="10.949592590332031">
        <ele>368</ele>
        <time>2002-12-22T09:52:36Z</time>
      </trkpt>
      <trkpt lat="44.380087936297059" lon="10.949721336364746">
        <ele>368</ele>
        <time>2002-12-22T09:52:45Z</time>
      </trkpt>
      <trkpt lat="44.380087936297059" lon="10.949721336364746">
        <ele>368</ele>
        <time>2002-12-22T09:52:47Z</time>
      </trkpt>
      <trkpt lat="44.380087936297059" lon="10.949828624725342">
        <ele>368</ele>
        <time>2002-12-22T09:52:53Z</time>
      </trkpt>
      <trkpt lat="44.380130767822266" lon="10.950279235839844">
        <ele>369</ele>
        <time>2002-12-22T09:53:10Z</time>
      </trkpt>
      <trkpt lat="44.380130767822266" lon="10.950450897216797">
        <ele>370</ele>
        <time>2002-12-22T09:53:17Z</time>
      </trkpt>
      <trkpt lat="44.380109310150146" lon="10.951094627380371">
        <ele>373</ele>
        <time>2002-12-22T09:53:56Z</time>
      </trkpt>
      <trkpt lat="44.380216598510742" lon="10.950987339019775">
        <ele>378</ele>
        <time>2002-12-22T09:55:43Z</time>
      </trkpt>
      <trkpt lat="44.380409717559814" lon="10.951266288757324">
        <ele>381</ele>
        <time>2002-12-22T09:56:01Z</time>
      </trkpt>
      <trkpt lat="44.380624294281006" lon="10.951545238494873">
        <ele>381</ele>
        <time>2002-12-22T09:56:32Z</time>
      </trkpt>
      <trkpt lat="44.380645835772157" lon="10.951438033953309">
        <ele>381</ele>
        <time>2002-12-22T09:57:17Z</time>
      </trkpt>
      <trkpt lat="44.380624294281006" lon="10.951395034790039">
        <ele>385</ele>
        <time>2002-12-22T09:57:58Z</time>
      </trkpt>
      <trkpt lat="44.380624294281006" lon="10.951395034790039">
        <ele>385</ele>
        <time>2002-12-22T09:57:59Z</time>
      </trkpt>
      <trkpt lat="44.380624294281006" lon="10.951330661773682">
        <ele>388</ele>
        <time>2002-12-22T09:58:07Z</time>
      </trkpt>
      <trkpt lat="44.380602836608887" lon="10.95111608505249">
        <ele>391</ele>
        <time>2002-12-22T09:58:27Z</time>
      </trkpt>
      <trkpt lat="44.380581378936768" lon="10.950987339019775">
        <ele>395</ele>
        <time>2002-12-22T09:58:59Z</time>
      </trkpt>
      <trkpt lat="44.380581378936768" lon="10.950965881347656">
        <ele>395</ele>
        <time>2002-12-22T09:59:00Z</time>
      </trkpt>
      <trkpt lat="44.380602836608887" lon="10.950751304626465">
        <ele>406</ele>
        <time>2002-12-22T10:02:09Z</time>
      </trkpt>
      <trkpt lat="44.380710124969482" lon="10.950815677642822">
        <ele>409</ele>
        <time>2002-12-22T10:02:25Z</time>
      </trkpt>
      <trkpt lat="44.380796039476991" lon="10.950794219970703">
        <ele>411</ele>
        <time>2002-12-22T10:02:45Z</time>
      </trkpt>
      <trkpt lat="44.38077449798584" lon="10.950751304626465">
        <ele>412</ele>
        <time>2002-12-22T10:03:08Z</time>
      </trkpt>
      <trkpt lat="44.380860328674316" lon="10.950751304626465">
        <ele>413</ele>
        <time>2002-12-22T10:03:17Z</time>
      </trkpt>
      <trkpt lat="44.38103199005127" lon="10.950837135314941">
        <ele>417</ele>
        <time>2002-12-22T10:03:34Z</time>
      </trkpt>
      <trkpt lat="44.381053363904357" lon="10.950837135314941">
        <ele>417</ele>
        <time>2002-12-22T10:03:35Z</time>
      </trkpt>
      <trkpt lat="44.381203735247254" lon="10.950858592987061">
        <ele>420</ele>
        <time>2002-12-22T10:03:46Z</time>
      </trkpt>
      <trkpt lat="44.381353938952088" lon="10.950837135314941">
        <ele>423</ele>
        <time>2002-12-22T10:03:58Z</time>
      </trkpt>
      <trkpt lat="44.381396770477295" lon="10.951030338183045">
        <ele>427</ele>
        <time>2002-12-22T10:05:38Z</time>
      </trkpt>
      <trkpt lat="44.381439685821533" lon="10.95111608505249">
        <ele>429</ele>
        <time>2002-12-22T10:05:43Z</time>
      </trkpt>
      <trkpt lat="44.381504058837891" lon="10.951201915740967">
        <ele>430</ele>
        <time>2002-12-22T10:05:53Z</time>
      </trkpt>
      <trkpt lat="44.381504058837891" lon="10.951287662610412">
        <ele>432</ele>
        <time>2002-12-22T10:05:59Z</time>
      </trkpt>
      <trkpt lat="44.381568431854248" lon="10.951502323150635">
        <ele>435</ele>
        <time>2002-12-22T10:06:09Z</time>
      </trkpt>
      <trkpt lat="44.381546974182129" lon="10.951652526855469">
        <ele>438</ele>
        <time>2002-12-22T10:06:18Z</time>
      </trkpt>
      <trkpt lat="44.381568431854248" lon="10.951952934265137">
        <ele>442</ele>
        <time>2002-12-22T10:06:35Z</time>
      </trkpt>
      <trkpt lat="44.381611263379455" lon="10.952038764953613">
        <ele>443</ele>
        <time>2002-12-22T10:06:53Z</time>
      </trkpt>
      <trkpt lat="44.381632804870605" lon="10.952103137969971">
        <ele>446</ele>
        <time>2002-12-22T10:07:02Z</time>
      </trkpt>
      <trkpt lat="44.381654262542725" lon="10.952210426330566">
        <ele>450</ele>
        <time>2002-12-22T10:07:17Z</time>
      </trkpt>
      <trkpt lat="44.381697177886963" lon="10.952339172363281">
        <ele>452</ele>
        <time>2002-12-22T10:07:31Z</time>
      </trkpt>
      <trkpt lat="44.381675720214844" lon="10.952489376068115">
        <ele>454</ele>
        <time>2002-12-22T10:07:44Z</time>
      </trkpt>
      <trkpt lat="44.381675720214844" lon="10.952811241149902">
        <ele>457</ele>
        <time>2002-12-22T10:08:06Z</time>
      </trkpt>
      <trkpt lat="44.381718635559082" lon="10.95287561416626">
        <ele>459</ele>
        <time>2002-12-22T10:08:09Z</time>
      </trkpt>
      <trkpt lat="44.381804466247559" lon="10.953304767608643">
        <ele>462</ele>
        <time>2002-12-22T10:08:34Z</time>
      </trkpt>
      <trkpt lat="44.381825923919678" lon="10.95341213978827">
        <ele>463</ele>
        <time>2002-12-22T10:08:39Z</time>
      </trkpt>
      <trkpt lat="44.381804466247559" lon="10.953605175018311">
        <ele>465</ele>
        <time>2002-12-22T10:08:50Z</time>
      </trkpt>
      <trkpt lat="44.381783008575439" lon="10.95362663269043">
        <ele>466</ele>
        <time>2002-12-22T10:09:01Z</time>
      </trkpt>
      <trkpt lat="44.381783008575439" lon="10.953819835558534">
        <ele>468</ele>
        <time>2002-12-22T10:09:18Z</time>
      </trkpt>
      <trkpt lat="44.381783008575439" lon="10.953927040100098">
        <ele>472</ele>
        <time>2002-12-22T10:09:32Z</time>
      </trkpt>
      <trkpt lat="44.381783008575439" lon="10.954141616821289">
        <ele>475</ele>
        <time>2002-12-22T10:09:49Z</time>
      </trkpt>
      <trkpt lat="44.381718635559082" lon="10.954163074493408">
        <ele>474</ele>
        <time>2002-12-22T10:10:37Z</time>
      </trkpt>
      <trkpt lat="44.381740093231201" lon="10.954399108886719">
        <ele>477</ele>
        <time>2002-12-22T10:11:10Z</time>
      </trkpt>
      <trkpt lat="44.381783008575439" lon="10.954678058624268">
        <ele>481</ele>
        <time>2002-12-22T10:11:29Z</time>
      </trkpt>
      <trkpt lat="44.381804466247559" lon="10.954999923706055">
        <ele>482</ele>
        <time>2002-12-22T10:11:51Z</time>
      </trkpt>
      <trkpt lat="44.381825923919678" lon="10.955192958936095">
        <ele>483</ele>
        <time>2002-12-22T10:12:07Z</time>
      </trkpt>
      <trkpt lat="44.381868839263916" lon="10.955450534820557">
        <ele>485</ele>
        <time>2002-12-22T10:12:19Z</time>
      </trkpt>
      <trkpt lat="44.381954669952393" lon="10.955772399902344">
        <ele>486</ele>
        <time>2002-12-22T10:12:29Z</time>
      </trkpt>
      <trkpt lat="44.382083415985107" lon="10.956566333770752">
        <ele>487</ele>
        <time>2002-12-22T10:12:52Z</time>
      </trkpt>
      <trkpt lat="44.382340908050537" lon="10.957660675048828">
        <ele>486</ele>
        <time>2002-12-22T10:13:25Z</time>
      </trkpt>
      <trkpt lat="44.382362365722656" lon="10.957875335589051">
        <ele>484</ele>
        <time>2002-12-22T10:13:44Z</time>
      </trkpt>
      <trkpt lat="44.382383823394775" lon="10.957875335589051">
        <ele>483</ele>
        <time>2002-12-22T10:13:47Z</time>
      </trkpt>
      <trkpt lat="44.38277006149292" lon="10.957982540130615">
        <ele>485</ele>
        <time>2002-12-22T10:14:24Z</time>
      </trkpt>
      <trkpt lat="44.38277006149292" lon="10.958175659179688">
        <ele>488</ele>
        <time>2002-12-22T10:14:48Z</time>
      </trkpt>
      <trkpt lat="44.38277006149292" lon="10.958197116851807">
        <ele>488</ele>
        <time>2002-12-22T10:14:49Z</time>
      </trkpt>
      <trkpt lat="44.380920426920056" lon="10.960986111313105">
        <ele>488</ele>
        <time>1989-12-31T00:00:00Z</time>
      </trkpt>
      <trkpt lat="44.383671283721924" lon="10.962681770324707">
        <ele>500</ele>
        <time>2002-12-22T10:21:05Z</time>
      </trkpt>
      <trkpt lat="44.384164810180664" lon="10.962767601013184">
        <ele>501</ele>
        <time>2002-12-22T10:21:19Z</time>
      </trkpt>
      <trkpt lat="44.384572505950928" lon="10.963218212127686">
        <ele>505</ele>
        <time>2002-12-22T10:21:44Z</time>
      </trkpt>
      <trkpt lat="44.384915828704834" lon="10.963582992553711">
        <ele>508</ele>
        <time>2002-12-22T10:22:08Z</time>
      </trkpt>
      <trkpt lat="44.384958660230041" lon="10.963561534881592">
        <ele>510</ele>
        <time>2002-12-22T10:22:13Z</time>
      </trkpt>
      <trkpt lat="44.385001659393311" lon="10.963561534881592">
        <ele>511</ele>
        <time>2002-12-22T10:22:16Z</time>
      </trkpt>
      <trkpt lat="44.385087490081787" lon="10.963475704193115">
        <ele>514</ele>
        <time>2002-12-22T10:22:23Z</time>
      </trkpt>
      <trkpt lat="44.385173320770264" lon="10.963432788848877">
        <ele>517</ele>
        <time>2002-12-22T10:22:31Z</time>
      </trkpt>
      <trkpt lat="44.385173320770264" lon="10.963411331176758">
        <ele>518</ele>
        <time>2002-12-22T10:22:32Z</time>
      </trkpt>
      <trkpt lat="44.385259235277772" lon="10.96330395899713">
        <ele>520</ele>
        <time>2002-12-22T10:22:41Z</time>
      </trkpt>
      <trkpt lat="44.385344982147217" lon="10.963196838274598">
        <ele>522</ele>
        <time>2002-12-22T10:23:00Z</time>
      </trkpt>
      <trkpt lat="44.385473728179932" lon="10.96311092376709">
        <ele>523</ele>
        <time>2002-12-22T10:23:18Z</time>
      </trkpt>
      <trkpt lat="44.385516559705138" lon="10.963068008422852">
        <ele>523</ele>
        <time>2002-12-22T10:23:26Z</time>
      </trkpt>
      <trkpt lat="44.385559558868408" lon="10.963068008422852">
        <ele>524</ele>
        <time>2002-12-22T10:23:29Z</time>
      </trkpt>
      <trkpt lat="44.385645389556885" lon="10.963003635406494">
        <ele>525</ele>
        <time>2002-12-22T10:23:40Z</time>
      </trkpt>
      <trkpt lat="44.385709762573242" lon="10.962982177734375">
        <ele>527</ele>
        <time>2002-12-22T10:23:46Z</time>
      </trkpt>
      <trkpt lat="44.385902881622314" lon="10.962896263226867">
        <ele>530</ele>
        <time>2002-12-22T10:24:02Z</time>
      </trkpt>
      <trkpt lat="44.386117458343506" lon="10.962746059522033">
        <ele>533</ele>
        <time>2002-12-22T10:24:22Z</time>
      </trkpt>
      <trkpt lat="44.386160373687744" lon="10.962767601013184">
        <ele>534</ele>
        <time>2002-12-22T10:24:40Z</time>
      </trkpt>
      <trkpt lat="44.386160373687744" lon="10.962767601013184">
        <ele>535</ele>
        <time>2002-12-22T10:25:11Z</time>
      </trkpt>
      <trkpt lat="44.386160373687744" lon="10.962767601013184">
        <ele>534</ele>
        <time>2002-12-22T10:25:24Z</time>
      </trkpt>
      <trkpt lat="44.386203289031982" lon="10.962982177734375">
        <ele>534</ele>
        <time>2002-12-22T10:25:35Z</time>
      </trkpt>
      <trkpt lat="44.386203289031982" lon="10.963003635406494">
        <ele>534</ele>
        <time>2002-12-22T10:25:37Z</time>
      </trkpt>
      <trkpt lat="44.38622466288507" lon="10.962917804718018">
        <ele>534</ele>
        <time>2002-12-22T10:25:44Z</time>
      </trkpt>
      <trkpt lat="44.386181831359863" lon="10.962789058685303">
        <ele>534</ele>
        <time>2002-12-22T10:26:07Z</time>
      </trkpt>
      <trkpt lat="44.386181831359863" lon="10.962789058685303">
        <ele>534</ele>
        <time>2002-12-22T10:26:19Z</time>
      </trkpt>
      <trkpt lat="44.386203289031982" lon="10.962767601013184">
        <ele>534</ele>
        <time>2002-12-22T10:26:21Z</time>
      </trkpt>
      <trkpt lat="44.386310577392578" lon="10.962746059522033">
        <ele>534</ele>
        <time>2002-12-22T10:26:26Z</time>
      </trkpt>
      <trkpt lat="44.387104511260986" lon="10.962402820587158">
        <ele>531</ele>
        <time>2002-12-22T10:26:42Z</time>
      </trkpt>
      <trkpt lat="44.387211799621582" lon="10.962338363751769">
        <ele>530</ele>
        <time>2002-12-22T10:26:44Z</time>
      </trkpt>
      <trkpt lat="44.388070106506348" lon="10.962123870849609">
        <ele>531</ele>
        <time>2002-12-22T10:27:00Z</time>
      </trkpt>
      <trkpt lat="44.388241767883301" lon="10.962123870849609">
        <ele>533</ele>
        <time>2002-12-22T10:27:04Z</time>
      </trkpt>
      <trkpt lat="44.388713836669922" lon="10.962145328521729">
        <ele>536</ele>
        <time>2002-12-22T10:27:19Z</time>
      </trkpt>
      <trkpt lat="44.389100074768066" lon="10.962123870849609">
        <ele>538</ele>
        <time>2002-12-22T10:27:36Z</time>
      </trkpt>
      <trkpt lat="44.389336109161377" lon="10.961887836456299">
        <ele>541</ele>
        <time>2002-12-22T10:27:50Z</time>
      </trkpt>
      <trkpt lat="44.389421939849854" lon="10.961394309997559">
        <ele>542</ele>
        <time>2002-12-22T10:28:06Z</time>
      </trkpt>
      <trkpt lat="44.389400482177734" lon="10.96062183380127">
        <ele>544</ele>
        <time>2002-12-22T10:28:28Z</time>
      </trkpt>
      <trkpt lat="44.389142990112305" lon="10.959506034851074">
        <ele>543</ele>
        <time>2002-12-22T10:28:54Z</time>
      </trkpt>
      <trkpt lat="44.389035701751709" lon="10.958840763196349">
        <ele>542</ele>
        <time>2002-12-22T10:29:08Z</time>
      </trkpt>
      <trkpt lat="44.388842582702637" lon="10.957682132720947">
        <ele>540</ele>
        <time>2002-12-22T10:29:27Z</time>
      </trkpt>
      <trkpt lat="44.388885498046875" lon="10.956759536638856">
        <ele>539</ele>
        <time>2002-12-22T10:29:43Z</time>
      </trkpt>
      <trkpt lat="44.388907039538026" lon="10.956394672393799">
        <ele>538</ele>
        <time>2002-12-22T10:29:50Z</time>
      </trkpt>
      <trkpt lat="44.388778209686279" lon="10.956072807312012">
        <ele>538</ele>
        <time>2002-12-22T10:29:56Z</time>
      </trkpt>
      <trkpt lat="44.388349140062928" lon="10.955901062116027">
        <ele>537</ele>
        <time>2002-12-22T10:30:06Z</time>
      </trkpt>
      <trkpt lat="44.387919902801514" lon="10.956008434295654">
        <ele>537</ele>
        <time>2002-12-22T10:30:15Z</time>
      </trkpt>
      <trkpt lat="44.387555122375488" lon="10.955944061279297">
        <ele>537</ele>
        <time>2002-12-22T10:30:23Z</time>
      </trkpt>
      <trkpt lat="44.387319087982178" lon="10.955557823181152">
        <ele>537</ele>
        <time>2002-12-22T10:30:33Z</time>
      </trkpt>
      <trkpt lat="44.38701868057251" lon="10.95461368560791">
        <ele>537</ele>
        <time>2002-12-22T10:30:50Z</time>
      </trkpt>
      <trkpt lat="44.386997222900391" lon="10.953991413116455">
        <ele>536</ele>
        <time>2002-12-22T10:31:01Z</time>
      </trkpt>
      <trkpt lat="44.387404918670654" lon="10.953369140625">
        <ele>535</ele>
        <time>2002-12-22T10:31:16Z</time>
      </trkpt>
      <trkpt lat="44.387383460998535" lon="10.952961361035705">
        <ele>534</ele>
        <time>2002-12-22T10:31:22Z</time>
      </trkpt>
      <trkpt lat="44.387083137407899" lon="10.951995765790343">
        <ele>532</ele>
        <time>2002-12-22T10:31:37Z</time>
      </trkpt>
      <trkpt lat="44.387104511260986" lon="10.95186710357666">
        <ele>532</ele>
        <time>2002-12-22T10:31:39Z</time>
      </trkpt>
      <trkpt lat="44.387190258130431" lon="10.95160961151123">
        <ele>531</ele>
        <time>2002-12-22T10:31:43Z</time>
      </trkpt>
      <trkpt lat="44.388306140899658" lon="10.950772762298584">
        <ele>529</ele>
        <time>2002-12-22T10:32:03Z</time>
      </trkpt>
      <trkpt lat="44.388842582702637" lon="10.950472438707948">
        <ele>529</ele>
        <time>2002-12-22T10:32:17Z</time>
      </trkpt>
      <trkpt lat="44.388928413391113" lon="10.950429439544678">
        <ele>529</ele>
        <time>2002-12-22T10:32:23Z</time>
      </trkpt>
      <trkpt lat="44.388971328735352" lon="10.950407981872559">
        <ele>528</ele>
        <time>2002-12-22T10:32:37Z</time>
      </trkpt>
      <trkpt lat="44.389100074768066" lon="10.950386524200439">
        <ele>527</ele>
        <time>2002-12-22T10:32:41Z</time>
      </trkpt>
      <trkpt lat="44.389379024505615" lon="10.950300693511963">
        <ele>527</ele>
        <time>2002-12-22T10:42:05Z</time>
      </trkpt>
      <trkpt lat="44.389700889587402" lon="10.950279235839844">
        <ele>525</ele>
        <time>2002-12-22T10:42:14Z</time>
      </trkpt>
      <trkpt lat="44.390044212341309" lon="10.950558185577393">
        <ele>523</ele>
        <time>2002-12-22T10:42:20Z</time>
      </trkpt>
      <trkpt lat="44.390194416046143" lon="10.950665473937988">
        <ele>518</ele>
        <time>2002-12-22T10:42:22Z</time>
      </trkpt>
      <trkpt lat="44.390366077423096" lon="10.950794219970703">
        <ele>515</ele>
        <time>2002-12-22T10:42:24Z</time>
      </trkpt>
      <trkpt lat="44.39051628112793" lon="10.950922966003418">
        <ele>512</ele>
        <time>2002-12-22T10:42:26Z</time>
      </trkpt>
      <trkpt lat="44.390645027160645" lon="10.951073169708252">
        <ele>510</ele>
        <time>2002-12-22T10:42:28Z</time>
      </trkpt>
      <trkpt lat="44.390881061553955" lon="10.951137458905578">
        <ele>505</ele>
        <time>2002-12-22T10:42:31Z</time>
      </trkpt>
      <trkpt lat="44.390966892242432" lon="10.95111608505249">
        <ele>503</ele>
        <time>2002-12-22T10:42:32Z</time>
      </trkpt>
      <trkpt lat="44.391160011291504" lon="10.951030338183045">
        <ele>500</ele>
        <time>2002-12-22T10:42:34Z</time>
      </trkpt>
      <trkpt lat="44.391374588012695" lon="10.950987339019775">
        <ele>495</ele>
        <time>2002-12-22T10:42:37Z</time>
      </trkpt>
      <trkpt lat="44.39150333404541" lon="10.950987339019775">
        <ele>490</ele>
        <time>2002-12-22T10:42:40Z</time>
      </trkpt>
      <trkpt lat="44.391524791717529" lon="10.950965881347656">
        <ele>490</ele>
        <time>2002-12-22T10:42:42Z</time>
      </trkpt>
      <trkpt lat="44.39176082611084" lon="10.950965881347656">
        <ele>488</ele>
        <time>2002-12-22T10:42:49Z</time>
      </trkpt>
      <trkpt lat="44.392061233520508" lon="10.950965881347656">
        <ele>486</ele>
        <time>2002-12-22T10:42:55Z</time>
      </trkpt>
      <trkpt lat="44.392275810241699" lon="10.950987339019775">
        <ele>482</ele>
        <time>2002-12-22T10:42:59Z</time>
      </trkpt>
      <trkpt lat="44.392726421356201" lon="10.951008796691895">
        <ele>479</ele>
        <time>2002-12-22T10:43:06Z</time>
      </trkpt>
      <trkpt lat="44.393026828765869" lon="10.951051712036133">
        <ele>475</ele>
        <time>2002-12-22T10:43:10Z</time>
      </trkpt>
      <trkpt lat="44.393112659454346" lon="10.951073169708252">
        <ele>475</ele>
        <time>2002-12-22T10:43:11Z</time>
      </trkpt>
      <trkpt lat="44.394099712371826" lon="10.95111608505249">
        <ele>473</ele>
        <time>2002-12-22T10:43:24Z</time>
      </trkpt>
      <trkpt lat="44.394486034289002" lon="10.951244831085205">
        <ele>469</ele>
        <time>2002-12-22T10:43:29Z</time>
      </trkpt>
      <trkpt lat="44.39500093460083" lon="10.951330661773682">
        <ele>467</ele>
        <time>2002-12-22T10:43:35Z</time>
      </trkpt>
      <trkpt lat="44.395194137468934" lon="10.951352119445801">
        <ele>466</ele>
        <time>2002-12-22T10:43:37Z</time>
      </trkpt>
      <trkpt lat="44.395430088043213" lon="10.951287662610412">
        <ele>463</ele>
        <time>2002-12-22T10:43:40Z</time>
      </trkpt>
      <trkpt lat="44.395709037780762" lon="10.951180541887879">
        <ele>461</ele>
        <time>2002-12-22T10:43:43Z</time>
      </trkpt>
      <trkpt lat="44.396181106567383" lon="10.950944423675537">
        <ele>459</ele>
        <time>2002-12-22T10:43:48Z</time>
      </trkpt>
      <trkpt lat="44.396545886993408" lon="10.950965881347656">
        <ele>457</ele>
        <time>2002-12-22T10:43:52Z</time>
      </trkpt>
      <trkpt lat="44.396824836730957" lon="10.951008796691895">
        <ele>455</ele>
        <time>2002-12-22T10:43:55Z</time>
      </trkpt>
      <trkpt lat="44.39751148223877" lon="10.951201915740967">
        <ele>453</ele>
        <time>2002-12-22T10:43:58Z</time>
      </trkpt>
      <trkpt lat="44.397683059796691" lon="10.951201915740967">
        <ele>450</ele>
        <time>2002-12-22T10:44:01Z</time>
      </trkpt>
      <trkpt lat="44.398026466369629" lon="10.951051712036133">
        <ele>450</ele>
        <time>2002-12-22T10:44:06Z</time>
      </trkpt>
      <trkpt lat="44.398455619812012" lon="10.950558185577393">
        <ele>450</ele>
        <time>2002-12-22T10:44:19Z</time>
      </trkpt>
      <trkpt lat="44.39875602722168" lon="10.950257778167725">
        <ele>452</ele>
        <time>2002-12-22T10:44:33Z</time>
      </trkpt>
      <trkpt lat="44.399142265319824" lon="10.949828624725342">
        <ele>455</ele>
        <time>2002-12-22T10:44:54Z</time>
      </trkpt>
      <trkpt lat="44.399356758221984" lon="10.949571132659912">
        <ele>457</ele>
        <time>2002-12-22T10:45:11Z</time>
      </trkpt>
      <trkpt lat="44.399378299713135" lon="10.949485301971436">
        <ele>457</ele>
        <time>2002-12-22T10:45:15Z</time>
      </trkpt>
      <trkpt lat="44.399635791778564" lon="10.949356639757752">
        <ele>457</ele>
        <time>2002-12-22T10:46:04Z</time>
      </trkpt>
      <trkpt lat="44.399979114532471" lon="10.949184894561768">
        <ele>455</ele>
        <time>2002-12-22T10:46:16Z</time>
      </trkpt>
      <trkpt lat="44.400451183319092" lon="10.948820114135742">
        <ele>452</ele>
        <time>2002-12-22T10:46:25Z</time>
      </trkpt>
      <trkpt lat="44.400815963745117" lon="10.948541164398193">
        <ele>448</ele>
        <time>2002-12-22T10:46:30Z</time>
      </trkpt>
      <trkpt lat="44.400880336761475" lon="10.948498165234923">
        <ele>449</ele>
        <time>2002-12-22T10:46:31Z</time>
      </trkpt>
      <trkpt lat="44.401524066925049" lon="10.947983264923096">
        <ele>447</ele>
        <time>2002-12-22T10:46:43Z</time>
      </trkpt>
      <trkpt lat="44.401888763532043" lon="10.947661399841309">
        <ele>448</ele>
        <time>2002-12-22T10:46:56Z</time>
      </trkpt>
      <trkpt lat="44.401974678039551" lon="10.947382533922791">
        <ele>451</ele>
        <time>2002-12-22T10:47:08Z</time>
      </trkpt>
      <trkpt lat="44.40203913487494" lon="10.947039127349854">
        <ele>454</ele>
        <time>2002-12-22T10:47:24Z</time>
      </trkpt>
      <trkpt lat="44.402103424072266" lon="10.946609973907471">
        <ele>456</ele>
        <time>2002-12-22T10:47:40Z</time>
      </trkpt>
      <trkpt lat="44.402167797088623" lon="10.946073532104492">
        <ele>458</ele>
        <time>2002-12-22T10:47:56Z</time>
      </trkpt>
      <trkpt lat="44.402210712432861" lon="10.945451259613037">
        <ele>462</ele>
        <time>2002-12-22T10:48:16Z</time>
      </trkpt>
      <trkpt lat="44.4022536277771" lon="10.944914817810059">
        <ele>464</ele>
        <time>2002-12-22T10:48:37Z</time>
      </trkpt>
      <trkpt lat="44.402146339416504" lon="10.944163799285889">
        <ele>463</ele>
        <time>2002-12-22T10:48:59Z</time>
      </trkpt>
      <trkpt lat="44.402017593383789" lon="10.943434238433838">
        <ele>463</ele>
        <time>2002-12-22T10:49:19Z</time>
      </trkpt>
      <trkpt lat="44.401910305023193" lon="10.942940711975098">
        <ele>464</ele>
        <time>2002-12-22T10:49:36Z</time>
      </trkpt>
      <trkpt lat="44.401867389678955" lon="10.942447185516357">
        <ele>463</ele>
        <time>2002-12-22T10:49:54Z</time>
      </trkpt>
      <trkpt lat="44.401867389678955" lon="10.942361438646913">
        <ele>462</ele>
        <time>2002-12-22T10:49:56Z</time>
      </trkpt>
      <trkpt lat="44.401867389678955" lon="10.941932201385498">
        <ele>458</ele>
        <time>2002-12-22T10:50:04Z</time>
      </trkpt>
      <trkpt lat="44.401888763532043" lon="10.941867828369141">
        <ele>457</ele>
        <time>2002-12-22T10:50:05Z</time>
      </trkpt>
      <trkpt lat="44.401974678039551" lon="10.9413743019104">
        <ele>455</ele>
        <time>2002-12-22T10:50:13Z</time>
      </trkpt>
      <trkpt lat="44.40203913487494" lon="10.941095435991883">
        <ele>452</ele>
        <time>2002-12-22T10:50:17Z</time>
      </trkpt>
      <trkpt lat="44.402189338579774" lon="10.940451622009277">
        <ele>448</ele>
        <time>2002-12-22T10:50:24Z</time>
      </trkpt>
      <trkpt lat="44.402210712432861" lon="10.940365791320801">
        <ele>448</ele>
        <time>2002-12-22T10:50:25Z</time>
      </trkpt>
      <trkpt lat="44.402360916137695" lon="10.939786434173584">
        <ele>445</ele>
        <time>2002-12-22T10:50:32Z</time>
      </trkpt>
      <trkpt lat="44.402403831481934" lon="10.939593315124512">
        <ele>443</ele>
        <time>2002-12-22T10:50:37Z</time>
      </trkpt>
      <trkpt lat="44.402511119842529" lon="10.93914270401001">
        <ele>442</ele>
        <time>2002-12-22T10:50:52Z</time>
      </trkpt>
      <trkpt lat="44.402532577514648" lon="10.938992500305176">
        <ele>441</ele>
        <time>2002-12-22T10:50:57Z</time>
      </trkpt>
      <trkpt lat="44.402511119842529" lon="10.938928127288818">
        <ele>441</ele>
        <time>2002-12-22T10:51:03Z</time>
      </trkpt>
      <trkpt lat="44.402575492858887" lon="10.93888521194458">
        <ele>441</ele>
        <time>2002-12-22T10:51:09Z</time>
      </trkpt>
      <trkpt lat="44.402575492858887" lon="10.93862771987915">
        <ele>437</ele>
        <time>2002-12-22T10:51:16Z</time>
      </trkpt>
      <trkpt lat="44.402532577514648" lon="10.938456058502197">
        <ele>434</ele>
        <time>2002-12-22T10:51:20Z</time>
      </trkpt>
      <trkpt lat="44.402425289154053" lon="10.938220024108887">
        <ele>431</ele>
        <time>2002-12-22T10:51:26Z</time>
      </trkpt>
      <trkpt lat="44.4022536277771" lon="10.938005363568664">
        <ele>426</ele>
        <time>2002-12-22T10:51:30Z</time>
      </trkpt>
      <trkpt lat="44.402060508728027" lon="10.937662124633789">
        <ele>421</ele>
        <time>2002-12-22T10:51:34Z</time>
      </trkpt>
      <trkpt lat="44.402017593383789" lon="10.937576293945313">
        <ele>421</ele>
        <time>2002-12-22T10:51:35Z</time>
      </trkpt>
      <trkpt lat="44.401867389678955" lon="10.937211513519287">
        <ele>416</ele>
        <time>2002-12-22T10:51:41Z</time>
      </trkpt>
      <trkpt lat="44.401845932006836" lon="10.937125682830811">
        <ele>415</ele>
        <time>2002-12-22T10:51:43Z</time>
      </trkpt>
      <trkpt lat="44.402060508728027" lon="10.937104225158691">
        <ele>411</ele>
        <time>2002-12-22T10:51:51Z</time>
      </trkpt>
      <trkpt lat="44.402210712432861" lon="10.937082767486572">
        <ele>408</ele>
        <time>2002-12-22T10:51:55Z</time>
      </trkpt>
      <trkpt lat="44.402382373809814" lon="10.937104225158691">
        <ele>405</ele>
        <time>2002-12-22T10:51:59Z</time>
      </trkpt>
      <trkpt lat="44.402554035186768" lon="10.937082767486572">
        <ele>402</ele>
        <time>2002-12-22T10:52:03Z</time>
      </trkpt>
      <trkpt lat="44.402682781219482" lon="10.937082767486572">
        <ele>398</ele>
        <time>2002-12-22T10:52:06Z</time>
      </trkpt>
      <trkpt lat="44.402918815612793" lon="10.937082767486572">
        <ele>394</ele>
        <time>2002-12-22T10:52:11Z</time>
      </trkpt>
      <trkpt lat="44.403090476989746" lon="10.937039935961366">
        <ele>391</ele>
        <time>2002-12-22T10:52:15Z</time>
      </trkpt>
      <trkpt lat="44.403197765350342" lon="10.937018394470215">
        <ele>389</ele>
        <time>2002-12-22T10:52:17Z</time>
      </trkpt>
      <trkpt lat="44.40324068069458" lon="10.936996936798096">
        <ele>389</ele>
        <time>2002-12-22T10:52:18Z</time>
      </trkpt>
      <trkpt lat="44.403283596038818" lon="10.936868190765381">
        <ele>388</ele>
        <time>2002-12-22T10:52:21Z</time>
      </trkpt>
      <trkpt lat="44.403305137529969" lon="10.936717987060547">
        <ele>387</ele>
        <time>2002-12-22T10:52:24Z</time>
      </trkpt>
      <trkpt lat="44.403347969055176" lon="10.936653614044189">
        <ele>386</ele>
        <time>2002-12-22T10:52:26Z</time>
      </trkpt>
      <trkpt lat="44.403433799743652" lon="10.936482036486268">
        <ele>382</ele>
        <time>2002-12-22T10:52:30Z</time>
      </trkpt>
      <trkpt lat="44.40349817276001" lon="10.936353206634521">
        <ele>381</ele>
        <time>2002-12-22T10:52:33Z</time>
      </trkpt>
      <trkpt lat="44.403562461957335" lon="10.936203002929687">
        <ele>378</ele>
        <time>2002-12-22T10:52:37Z</time>
      </trkpt>
      <trkpt lat="44.403669834136963" lon="10.936074340716004">
        <ele>374</ele>
        <time>2002-12-22T10:52:41Z</time>
      </trkpt>
      <trkpt lat="44.403691291809082" lon="10.936052799224854">
        <ele>374</ele>
        <time>2002-12-22T10:52:42Z</time>
      </trkpt>
      <trkpt lat="44.403755664825439" lon="10.935945510864258">
        <ele>371</ele>
        <time>2002-12-22T10:52:45Z</time>
      </trkpt>
      <trkpt lat="44.403820037841797" lon="10.935752391815186">
        <ele>367</ele>
        <time>2002-12-22T10:52:51Z</time>
      </trkpt>
      <trkpt lat="44.403841495513916" lon="10.935559272766113">
        <ele>363</ele>
        <time>2002-12-22T10:52:56Z</time>
      </trkpt>
      <trkpt lat="44.403863037005067" lon="10.935559272766113">
        <ele>361</ele>
        <time>2002-12-22T10:52:58Z</time>
      </trkpt>
      <trkpt lat="44.403863037005067" lon="10.935559272766113">
        <ele>357</ele>
        <time>2002-12-22T10:53:03Z</time>
      </trkpt>
      <trkpt lat="44.403884410858154" lon="10.935623561963439">
        <ele>355</ele>
        <time>2002-12-22T10:53:06Z</time>
      </trkpt>
      <trkpt lat="44.403905868530273" lon="10.935730934143066">
        <ele>352</ele>
        <time>2002-12-22T10:53:10Z</time>
      </trkpt>
      <trkpt lat="44.403884410858154" lon="10.93590259552002">
        <ele>349</ele>
        <time>2002-12-22T10:53:17Z</time>
      </trkpt>
      <trkpt lat="44.403905868530273" lon="10.935988426208496">
        <ele>345</ele>
        <time>2002-12-22T10:53:21Z</time>
      </trkpt>
      <trkpt lat="44.403927326202393" lon="10.936009883880615">
        <ele>344</ele>
        <time>2002-12-22T10:53:23Z</time>
      </trkpt>
      <trkpt lat="44.403948783874512" lon="10.936052799224854">
        <ele>342</ele>
        <time>2002-12-22T10:53:25Z</time>
      </trkpt>
      <trkpt lat="44.40399169921875" lon="10.936203002929687">
        <ele>339</ele>
        <time>2002-12-22T10:53:33Z</time>
      </trkpt>
      <trkpt lat="44.404013240709901" lon="10.936224460601807">
        <ele>336</ele>
        <time>2002-12-22T10:53:35Z</time>
      </trkpt>
      <trkpt lat="44.404120361432433" lon="10.935966968536377">
        <ele>330</ele>
        <time>2002-12-22T10:53:40Z</time>
      </trkpt>
      <trkpt lat="44.404184818267822" lon="10.935688018798828">
        <ele>326</ele>
        <time>2002-12-22T10:53:44Z</time>
      </trkpt>
      <trkpt lat="44.404270565137267" lon="10.935344696044922">
        <ele>323</ele>
        <time>2002-12-22T10:53:49Z</time>
      </trkpt>
      <trkpt lat="44.404420936480165" lon="10.934786796569824">
        <ele>323</ele>
        <time>2002-12-22T10:53:57Z</time>
      </trkpt>
      <trkpt lat="44.404356479644775" lon="10.934422016143799">
        <ele>325</ele>
        <time>2002-12-22T10:54:06Z</time>
      </trkpt>
      <trkpt lat="44.403669834136963" lon="10.933713912963867">
        <ele>326</ele>
        <time>2002-12-22T10:54:08Z</time>
      </trkpt>
      <trkpt lat="44.403262138366699" lon="10.932984435930848">
        <ele>323</ele>
        <time>2002-12-22T10:54:29Z</time>
      </trkpt>
      <trkpt lat="44.403176307678223" lon="10.932447910308838">
        <ele>326</ele>
        <time>2002-12-22T10:54:46Z</time>
      </trkpt>
      <trkpt lat="44.403219223022461" lon="10.932362079620361">
        <ele>325</ele>
        <time>2002-12-22T10:54:59Z</time>
      </trkpt>
      <trkpt lat="44.40324068069458" lon="10.932340621948242">
        <ele>326</ele>
        <time>2002-12-22T10:55:22Z</time>
      </trkpt>
      <trkpt lat="44.403133392333984" lon="10.931954383850098">
        <ele>327</ele>
        <time>2002-12-22T10:55:35Z</time>
      </trkpt>
      <trkpt lat="44.403026103973389" lon="10.931417858228087">
        <ele>324</ele>
        <time>2002-12-22T10:55:49Z</time>
      </trkpt>
      <trkpt lat="44.403004562482238" lon="10.93113899230957">
        <ele>320</ele>
        <time>2002-12-22T10:55:52Z</time>
      </trkpt>
      <trkpt lat="44.402940273284912" lon="10.930795669555664">
        <ele>316</ele>
        <time>2002-12-22T10:55:55Z</time>
      </trkpt>
      <trkpt lat="44.402875900268555" lon="10.930473804473877">
        <ele>311</ele>
        <time>2002-12-22T10:56:00Z</time>
      </trkpt>
      <trkpt lat="44.402875900268555" lon="10.930430889129639">
        <ele>311</ele>
        <time>2002-12-22T10:56:01Z</time>
      </trkpt>
      <trkpt lat="44.402832984924316" lon="10.93040943145752">
        <ele>311</ele>
        <time>2002-12-22T10:56:04Z</time>
      </trkpt>
      <trkpt lat="44.402897441759706" lon="10.930323600769043">
        <ele>309</ele>
        <time>2002-12-22T10:56:14Z</time>
      </trkpt>
      <trkpt lat="44.402897441759706" lon="10.930280685424805">
        <ele>309</ele>
        <time>2002-12-22T10:56:15Z</time>
      </trkpt>
      <trkpt lat="44.402811527252197" lon="10.930066108703613">
        <ele>308</ele>
        <time>2002-12-22T10:56:24Z</time>
      </trkpt>
      <trkpt lat="44.402875900268555" lon="10.929787158966064">
        <ele>308</ele>
        <time>2002-12-22T10:56:32Z</time>
      </trkpt>
      <trkpt lat="44.402854358777404" lon="10.929443836212158">
        <ele>304</ele>
        <time>2002-12-22T10:56:41Z</time>
      </trkpt>
      <trkpt lat="44.402768611907959" lon="10.929358005523682">
        <ele>303</ele>
        <time>2002-12-22T10:56:44Z</time>
      </trkpt>
      <trkpt lat="44.402468204498291" lon="10.929186260327697">
        <ele>301</ele>
        <time>2002-12-22T10:56:54Z</time>
      </trkpt>
      <trkpt lat="44.402275085449219" lon="10.928950309753418">
        <ele>300</ele>
        <time>2002-12-22T10:57:07Z</time>
      </trkpt>
      <trkpt lat="44.40223217010498" lon="10.928778564557433">
        <ele>300</ele>
        <time>2002-12-22T10:57:24Z</time>
      </trkpt>
      <trkpt lat="44.4022536277771" lon="10.928542613983154">
        <ele>297</ele>
        <time>2002-12-22T10:57:38Z</time>
      </trkpt>
      <trkpt lat="44.402275085449219" lon="10.928478240966797">
        <ele>296</ele>
        <time>2002-12-22T10:57:46Z</time>
      </trkpt>
      <trkpt lat="44.402296459302306" lon="10.928435325622559">
        <ele>295</ele>
        <time>2002-12-22T10:57:51Z</time>
      </trkpt>
      <trkpt lat="44.402425289154053" lon="10.928499698638916">
        <ele>294</ele>
        <time>2002-12-22T10:57:58Z</time>
      </trkpt>
      <trkpt lat="44.402532577514648" lon="10.928585529327393">
        <ele>291</ele>
        <time>2002-12-22T10:58:02Z</time>
      </trkpt>
      <trkpt lat="44.402725696563721" lon="10.928435325622559">
        <ele>287</ele>
        <time>2002-12-22T10:58:07Z</time>
      </trkpt>
      <trkpt lat="44.402832984924316" lon="10.928328037261963">
        <ele>284</ele>
        <time>2002-12-22T10:58:09Z</time>
      </trkpt>
      <trkpt lat="44.402940273284912" lon="10.928242206573486">
        <ele>280</ele>
        <time>2002-12-22T10:58:11Z</time>
      </trkpt>
      <trkpt lat="44.403090476989746" lon="10.928113460540771">
        <ele>276</ele>
        <time>2002-12-22T10:58:14Z</time>
      </trkpt>
      <trkpt lat="44.403176307678223" lon="10.928049087524414">
        <ele>273</ele>
        <time>2002-12-22T10:58:16Z</time>
      </trkpt>
      <trkpt lat="44.40324068069458" lon="10.927984714508057">
        <ele>270</ele>
        <time>2002-12-22T10:58:18Z</time>
      </trkpt>
      <trkpt lat="44.403326511383057" lon="10.927941799163818">
        <ele>266</ele>
        <time>2002-12-22T10:58:22Z</time>
      </trkpt>
      <trkpt lat="44.403390884399414" lon="10.927941799163818">
        <ele>263</ele>
        <time>2002-12-22T10:58:28Z</time>
      </trkpt>
      <trkpt lat="44.403820037841797" lon="10.928242206573486">
        <ele>255</ele>
        <time>2002-12-22T08:33:32Z</time>
      </trkpt>
      <trkpt lat="44.40399169921875" lon="10.928585529327393">
        <ele>252</ele>
        <time>2002-12-22T08:33:15Z</time>
      </trkpt>
      <trkpt lat="44.404034614562988" lon="10.928606986999512">
        <ele>251</ele>
        <time>2002-12-22T08:33:13Z</time>
      </trkpt>
      <trkpt lat="44.404377937316895" lon="10.928757190704346">
        <ele>248</ele>
        <time>2002-12-22T08:32:56Z</time>
      </trkpt>
      <trkpt lat="44.404506683349609" lon="10.929036140441895">
        <ele>244</ele>
        <time>2002-12-22T08:32:43Z</time>
      </trkpt>
      <trkpt lat="44.404656887054443" lon="10.929379463195801">
        <ele>241</ele>
        <time>2002-12-22T08:32:29Z</time>
      </trkpt>
      <trkpt lat="44.404978835955262" lon="10.929830074310303">
        <ele>237</ele>
        <time>2002-12-22T08:32:09Z</time>
      </trkpt>
      <trkpt lat="44.405171871185303" lon="10.930109024047852">
        <ele>234</ele>
        <time>2002-12-22T08:31:57Z</time>
      </trkpt>
      <trkpt lat="44.405579566955566" lon="10.930109024047852">
        <ele>233</ele>
        <time>2002-12-22T08:31:40Z</time>
      </trkpt>
      <trkpt lat="44.405708312988281" lon="10.929744159802794">
        <ele>233</ele>
        <time>2002-12-22T08:31:28Z</time>
      </trkpt>
      <trkpt lat="44.40575122833252" lon="10.929100513458252">
        <ele>234</ele>
        <time>2002-12-22T08:31:16Z</time>
      </trkpt>
      <trkpt lat="44.406244838610291" lon="10.928542613983154">
        <ele>236</ele>
        <time>2002-12-22T08:31:00Z</time>
      </trkpt>
      <trkpt lat="44.406394958496094" lon="10.928134918212891">
        <ele>236</ele>
        <time>2002-12-22T08:30:52Z</time>
      </trkpt>
      <trkpt lat="44.406802738085389" lon="10.927469730377197">
        <ele>237</ele>
        <time>2002-12-22T08:30:33Z</time>
      </trkpt>
      <trkpt lat="44.407124519348145" lon="10.927019119262695">
        <ele>237</ele>
        <time>2002-12-22T08:30:19Z</time>
      </trkpt>
      <trkpt lat="44.407081604003906" lon="10.926396762952209">
        <ele>236</ele>
        <time>2002-12-22T08:30:04Z</time>
      </trkpt>
      <trkpt lat="44.407253265380859" lon="10.926010608673096">
        <ele>234</ele>
        <time>2002-12-22T08:29:51Z</time>
      </trkpt>
      <trkpt lat="44.407832622528076" lon="10.925838863477111">
        <ele>233</ele>
        <time>2002-12-22T08:29:31Z</time>
      </trkpt>
      <trkpt lat="44.408283233642578" lon="10.925860404968262">
        <ele>232</ele>
        <time>2002-12-22T08:29:15Z</time>
      </trkpt>
      <trkpt lat="44.408798217773438" lon="10.92564582824707">
        <ele>230</ele>
        <time>2002-12-22T08:28:56Z</time>
      </trkpt>
      <trkpt lat="44.409377574920654" lon="10.925881862640381">
        <ele>229</ele>
        <time>2002-12-22T08:28:36Z</time>
      </trkpt>
      <trkpt lat="44.40997838973999" lon="10.92616081237793">
        <ele>228</ele>
        <time>2002-12-22T08:28:15Z</time>
      </trkpt>
      <trkpt lat="44.410321712493896" lon="10.926246559247375">
        <ele>227</ele>
        <time>2002-12-22T08:28:03Z</time>
      </trkpt>
      <trkpt lat="44.410708034411073" lon="10.926396762952209">
        <ele>227</ele>
        <time>2002-12-22T08:27:47Z</time>
      </trkpt>
      <trkpt lat="44.411115562543273" lon="10.926482677459717">
        <ele>226</ele>
        <time>2002-12-22T08:27:33Z</time>
      </trkpt>
      <trkpt lat="44.411458969116211" lon="10.926568508148193">
        <ele>225</ele>
        <time>2002-12-22T08:27:20Z</time>
      </trkpt>
      <trkpt lat="44.411823665723205" lon="10.926525592803955">
        <ele>225</ele>
        <time>2002-12-22T08:27:07Z</time>
      </trkpt>
      <trkpt lat="44.412081241607666" lon="10.926783084869385">
        <ele>223</ele>
        <time>2002-12-22T08:26:55Z</time>
      </trkpt>
      <trkpt lat="44.412167072296143" lon="10.927233695983887">
        <ele>222</ele>
        <time>2002-12-22T08:26:43Z</time>
      </trkpt>
      <trkpt lat="44.412510395050049" lon="10.927255237475038">
        <ele>222</ele>
        <time>2002-12-22T08:26:32Z</time>
      </trkpt>
      <trkpt lat="44.41298246383667" lon="10.926933288574219">
        <ele>220</ele>
        <time>2002-12-22T08:26:13Z</time>
      </trkpt>
      <trkpt lat="44.41347599029541" lon="10.926568508148193">
        <ele>218</ele>
        <time>2002-12-22T08:25:54Z</time>
      </trkpt>
      <trkpt lat="44.413776397705078" lon="10.926203727722168">
        <ele>218</ele>
        <time>2002-12-22T08:25:40Z</time>
      </trkpt>
      <trkpt lat="44.414055263623595" lon="10.926589965820313">
        <ele>216</ele>
        <time>2002-12-22T08:25:23Z</time>
      </trkpt>
      <trkpt lat="44.414420127868652" lon="10.926954662427306">
        <ele>216</ele>
        <time>2002-12-22T08:25:07Z</time>
      </trkpt>
      <trkpt lat="44.414806365966797" lon="10.92665433883667">
        <ele>214</ele>
        <time>2002-12-22T08:24:51Z</time>
      </trkpt>
      <trkpt lat="44.415192604064941" lon="10.926396762952209">
        <ele>214</ele>
        <time>2002-12-22T08:24:37Z</time>
      </trkpt>
      <trkpt lat="44.415450096130371" lon="10.926461219787598">
        <ele>214</ele>
        <time>2002-12-22T08:24:27Z</time>
      </trkpt>
      <trkpt lat="44.415535926818848" lon="10.92710486613214">
        <ele>213</ele>
        <time>2002-12-22T08:24:13Z</time>
      </trkpt>
      <trkpt lat="44.415814876556396" lon="10.92764139175415">
        <ele>210</ele>
        <time>2002-12-22T08:23:58Z</time>
      </trkpt>
      <trkpt lat="44.416050910949707" lon="10.927941799163818">
        <ele>214</ele>
        <time>2002-12-22T11:06:09Z</time>
      </trkpt>
      <trkpt lat="44.416265487670898" lon="10.927877426147461">
        <ele>213</ele>
        <time>2002-12-22T11:06:18Z</time>
      </trkpt>
      <trkpt lat="44.41648006439209" lon="10.927555561065674">
        <ele>209</ele>
        <time>2002-12-22T11:06:37Z</time>
      </trkpt>
      <trkpt lat="44.416673183441162" lon="10.927083492279053">
        <ele>204</ele>
        <time>2002-12-22T11:06:42Z</time>
      </trkpt>
      <trkpt lat="44.416866302490234" lon="10.926675796508789">
        <ele>199</ele>
        <time>2002-12-22T11:06:46Z</time>
      </trkpt>
      <trkpt lat="44.417209625244141" lon="10.926246559247375">
        <ele>194</ele>
        <time>2002-12-22T11:06:50Z</time>
      </trkpt>
      <trkpt lat="44.417295539751649" lon="10.926139438524842">
        <ele>193</ele>
        <time>2002-12-22T11:06:51Z</time>
      </trkpt>
      <trkpt lat="44.417681694030762" lon="10.925967693328857">
        <ele>188</ele>
        <time>2002-12-22T11:06:55Z</time>
      </trkpt>
      <trkpt lat="44.417788982391357" lon="10.925989234820008">
        <ele>187</ele>
        <time>2002-12-22T11:06:56Z</time>
      </trkpt>
      <trkpt lat="44.41821813583374" lon="10.926117897033691">
        <ele>183</ele>
        <time>2002-12-22T11:07:00Z</time>
      </trkpt>
      <trkpt lat="44.418690204620361" lon="10.926032066345215">
        <ele>177</ele>
        <time>2002-12-22T11:07:04Z</time>
      </trkpt>
      <trkpt lat="44.418776035308838" lon="10.925946235656738">
        <ele>177</ele>
        <time>2002-12-22T11:07:05Z</time>
      </trkpt>
      <trkpt lat="44.419183731079102" lon="10.925559997558594">
        <ele>173</ele>
        <time>2002-12-22T11:07:09Z</time>
      </trkpt>
      <trkpt lat="44.419634258374572" lon="10.924572860822082">
        <ele>169</ele>
        <time>2002-12-22T11:07:17Z</time>
      </trkpt>
      <trkpt lat="44.419827461242676" lon="10.923950672149658">
        <ele>168</ele>
        <time>2002-12-22T11:07:26Z</time>
      </trkpt>
      <trkpt lat="44.41997766494751" lon="10.923585891723633">
        <ele>167</ele>
        <time>2002-12-22T11:07:39Z</time>
      </trkpt>
      <trkpt lat="44.420170783996582" lon="10.923693180084229">
        <ele>167</ele>
        <time>2002-12-22T11:07:48Z</time>
      </trkpt>
      <trkpt lat="44.420235240831971" lon="10.923736095428467">
        <ele>166</ele>
        <time>2002-12-22T11:07:50Z</time>
      </trkpt>
      <trkpt lat="44.420428276062012" lon="10.923907840624452">
        <ele>165</ele>
        <time>2002-12-22T11:07:55Z</time>
      </trkpt>
      <trkpt lat="44.421050464734435" lon="10.924122333526611">
        <ele>165</ele>
        <time>2002-12-22T11:08:10Z</time>
      </trkpt>
      <trkpt lat="44.421286582946777" lon="10.924208164215088">
        <ele>165</ele>
        <time>2002-12-22T11:08:16Z</time>
      </trkpt>
      <trkpt lat="44.421351039782166" lon="10.924379825592041">
        <ele>165</ele>
        <time>2002-12-22T11:08:20Z</time>
      </trkpt>
      <trkpt lat="44.421436786651611" lon="10.924572860822082">
        <ele>165</ele>
        <time>2002-12-22T11:08:24Z</time>
      </trkpt>
      <trkpt lat="44.421930313110352" lon="10.925045013427734">
        <ele>161</ele>
        <time>2002-12-22T11:08:33Z</time>
      </trkpt>
      <trkpt lat="44.422338008880615" lon="10.925366878509521">
        <ele>160</ele>
        <time>2002-12-22T11:08:40Z</time>
      </trkpt>
      <trkpt lat="44.422895908355713" lon="10.92564582824707">
        <ele>160</ele>
        <time>2002-12-22T11:08:51Z</time>
      </trkpt>
      <trkpt lat="44.423367977142334" lon="10.925838863477111">
        <ele>160</ele>
        <time>2002-12-22T11:09:02Z</time>
      </trkpt>
      <trkpt lat="44.423689758405089" lon="10.926311016082764">
        <ele>158</ele>
        <time>2002-12-22T11:09:11Z</time>
      </trkpt>
      <trkpt lat="44.423732841387391" lon="10.926353931427002">
        <ele>158</ele>
        <time>2002-12-22T11:09:12Z</time>
      </trkpt>
      <trkpt lat="44.424612522125244" lon="10.926718711853027">
        <ele>156</ele>
        <time>2002-12-22T11:09:28Z</time>
      </trkpt>
      <trkpt lat="44.424655437469482" lon="10.926740169525146">
        <ele>156</ele>
        <time>2002-12-22T11:09:29Z</time>
      </trkpt>
      <trkpt lat="44.425449371337891" lon="10.92764139175415">
        <ele>155</ele>
        <time>2002-12-22T11:09:48Z</time>
      </trkpt>
      <trkpt lat="44.425599575042725" lon="10.927834510803223">
        <ele>154</ele>
        <time>2002-12-22T11:09:52Z</time>
      </trkpt>
      <trkpt lat="44.426243305206299" lon="10.928027629852295">
        <ele>155</ele>
        <time>2002-12-22T11:10:05Z</time>
      </trkpt>
      <trkpt lat="44.426672458648682" lon="10.928134918212891">
        <ele>154</ele>
        <time>2002-12-22T11:10:13Z</time>
      </trkpt>
      <trkpt lat="44.427080238237977" lon="10.928092002868652">
        <ele>154</ele>
        <time>2002-12-22T11:10:21Z</time>
      </trkpt>
      <trkpt lat="44.42720890045166" lon="10.928027629852295">
        <ele>154</ele>
        <time>2002-12-22T11:10:24Z</time>
      </trkpt>
      <trkpt lat="44.427874088287354" lon="10.928199291229248">
        <ele>155</ele>
        <time>2002-12-22T11:10:37Z</time>
      </trkpt>
      <trkpt lat="44.428474903106689" lon="10.928521240130067">
        <ele>154</ele>
        <time>2002-12-22T11:10:51Z</time>
      </trkpt>
      <trkpt lat="44.42896842956543" lon="10.928757190704346">
        <ele>154</ele>
        <time>2002-12-22T11:11:02Z</time>
      </trkpt>
      <trkpt lat="44.429590702056885" lon="10.928714275360107">
        <ele>153</ele>
        <time>2002-12-22T11:11:14Z</time>
      </trkpt>
      <trkpt lat="44.429934024810791" lon="10.928821563720703">
        <ele>153</ele>
        <time>2002-12-22T11:11:21Z</time>
      </trkpt>
      <trkpt lat="44.430105686187744" lon="10.928971767425537">
        <ele>152</ele>
        <time>2002-12-22T11:11:25Z</time>
      </trkpt>
      <trkpt lat="44.431157112121582" lon="10.929379463195801">
        <ele>152</ele>
        <time>2002-12-22T11:11:46Z</time>
      </trkpt>
      <trkpt lat="44.432036876678467" lon="10.929508209228516">
        <ele>150</ele>
        <time>2002-12-22T11:12:02Z</time>
      </trkpt>
      <trkpt lat="44.432401740923524" lon="10.929486835375428">
        <ele>151</ele>
        <time>2002-12-22T11:12:09Z</time>
      </trkpt>
      <trkpt lat="44.43246603012085" lon="10.929486835375428">
        <ele>150</ele>
        <time>2002-12-22T11:12:11Z</time>
      </trkpt>
      <trkpt lat="44.432809436693788" lon="10.929701328277588">
        <ele>152</ele>
        <time>2002-12-22T11:12:24Z</time>
      </trkpt>
      <trkpt lat="44.432873725891113" lon="10.929787158966064">
        <ele>151</ele>
        <time>2002-12-22T11:12:26Z</time>
      </trkpt>
      <trkpt lat="44.433431625366211" lon="10.930237770080566">
        <ele>152</ele>
        <time>2002-12-22T11:12:42Z</time>
      </trkpt>
      <trkpt lat="44.434053897857666" lon="10.930559635162354">
        <ele>152</ele>
        <time>2002-12-22T11:12:59Z</time>
      </trkpt>
      <trkpt lat="44.434375762939453" lon="10.930817127227783">
        <ele>152</ele>
        <time>2002-12-22T11:13:15Z</time>
      </trkpt>
      <trkpt lat="44.434676170349121" lon="10.93113899230957">
        <ele>151</ele>
        <time>2002-12-22T11:13:29Z</time>
      </trkpt>
      <trkpt lat="44.434912204742432" lon="10.931417858228087">
        <ele>150</ele>
        <time>2002-12-22T11:13:45Z</time>
      </trkpt>
      <trkpt lat="44.435148239135742" lon="10.931696891784668">
        <ele>151</ele>
        <time>2002-12-22T11:14:01Z</time>
      </trkpt>
      <trkpt lat="44.435620307922363" lon="10.932104587554932">
        <ele>150</ele>
        <time>2002-12-22T11:14:20Z</time>
      </trkpt>
      <trkpt lat="44.435899341478944" lon="10.932254791259766">
        <ele>152</ele>
        <time>2002-12-22T11:14:27Z</time>
      </trkpt>
      <trkpt lat="44.436049461364746" lon="10.932447910308838">
        <ele>153</ele>
        <time>2002-12-22T11:14:34Z</time>
      </trkpt>
      <trkpt lat="44.436414241790771" lon="10.932598114013672">
        <ele>150</ele>
        <time>2002-12-22T11:14:40Z</time>
      </trkpt>
      <trkpt lat="44.436542987823486" lon="10.932683860883117">
        <ele>150</ele>
        <time>2002-12-22T11:14:43Z</time>
      </trkpt>
      <trkpt lat="44.436929225921631" lon="10.933134639635682">
        <ele>150</ele>
        <time>2002-12-22T11:14:57Z</time>
      </trkpt>
      <trkpt lat="44.437401294708252" lon="10.933713912963867">
        <ele>149</ele>
        <time>2002-12-22T11:15:13Z</time>
      </trkpt>
      <trkpt lat="44.438109397888184" lon="10.934422016143799">
        <ele>147</ele>
        <time>2002-12-22T11:15:30Z</time>
      </trkpt>
      <trkpt lat="44.438323974609375" lon="10.934700965881348">
        <ele>147</ele>
        <time>2002-12-22T11:15:36Z</time>
      </trkpt>
      <trkpt lat="44.438731670379639" lon="10.935194492340088">
        <ele>148</ele>
        <time>2002-12-22T11:15:49Z</time>
      </trkpt>
      <trkpt lat="44.439396858215332" lon="10.936181461438537">
        <ele>149</ele>
        <time>2002-12-22T11:16:12Z</time>
      </trkpt>
      <trkpt lat="44.439568519592285" lon="10.936331665143371">
        <ele>146</ele>
        <time>2002-12-22T11:16:16Z</time>
      </trkpt>
      <trkpt lat="44.439654434099793" lon="10.936439037322998">
        <ele>145</ele>
        <time>2002-12-22T11:16:18Z</time>
      </trkpt>
      <trkpt lat="44.439697265625" lon="10.936503410339355">
        <ele>146</ele>
        <time>2002-12-22T11:16:19Z</time>
      </trkpt>
      <trkpt lat="44.439868927001953" lon="10.936610698699951">
        <ele>146</ele>
        <time>2002-12-22T11:16:22Z</time>
      </trkpt>
      <trkpt lat="44.440641403198242" lon="10.937232971191406">
        <ele>145</ele>
        <time>2002-12-22T11:16:38Z</time>
      </trkpt>
      <trkpt lat="44.441134929656982" lon="10.937490463256836">
        <ele>145</ele>
        <time>2002-12-22T11:16:49Z</time>
      </trkpt>
      <trkpt lat="44.441285133361816" lon="10.93764066696167">
        <ele>145</ele>
        <time>2002-12-22T11:16:53Z</time>
      </trkpt>
      <trkpt lat="44.441864490509033" lon="10.938456058502197">
        <ele>145</ele>
        <time>2002-12-22T11:17:11Z</time>
      </trkpt>
      <trkpt lat="44.442143440246582" lon="10.939357280731201">
        <ele>146</ele>
        <time>2002-12-22T11:17:26Z</time>
      </trkpt>
      <trkpt lat="44.442508220672607" lon="10.940279960632324">
        <ele>142</ele>
        <time>2002-12-22T11:17:39Z</time>
      </trkpt>
      <trkpt lat="44.44274433888495" lon="10.940666198730469">
        <ele>142</ele>
        <time>2002-12-22T11:17:46Z</time>
      </trkpt>
      <trkpt lat="44.443302238360047" lon="10.941846370697021">
        <ele>142</ele>
        <time>2002-12-22T11:18:06Z</time>
      </trkpt>
      <trkpt lat="44.443860137835145" lon="10.942726135253906">
        <ele>143</ele>
        <time>2002-12-22T11:18:22Z</time>
      </trkpt>
      <trkpt lat="44.444396495819092" lon="10.943562984466553">
        <ele>142</ele>
        <time>2002-12-22T11:18:38Z</time>
      </trkpt>
      <trkpt lat="44.444589614868164" lon="10.943777561187744">
        <ele>143</ele>
        <time>2002-12-22T11:18:43Z</time>
      </trkpt>
      <trkpt lat="44.444997310638428" lon="10.944786071777344">
        <ele>141</ele>
        <time>2002-12-22T11:18:57Z</time>
      </trkpt>
      <trkpt lat="44.445619583129883" lon="10.945751667022705">
        <ele>141</ele>
        <time>2002-12-22T11:19:14Z</time>
      </trkpt>
      <trkpt lat="44.446392059326172" lon="10.946695804595947">
        <ele>140</ele>
        <time>2002-12-22T11:19:33Z</time>
      </trkpt>
      <trkpt lat="44.44694995880127" lon="10.947318077087402">
        <ele>139</ele>
        <time>2002-12-22T11:19:46Z</time>
      </trkpt>
      <trkpt lat="44.44718599319458" lon="10.947961807250977">
        <ele>137</ele>
        <time>2002-12-22T11:19:54Z</time>
      </trkpt>
      <trkpt lat="44.447336196899414" lon="10.948240840807557">
        <ele>137</ele>
        <time>2002-12-22T11:19:59Z</time>
      </trkpt>
      <trkpt lat="44.44793701171875" lon="10.9488844871521">
        <ele>136</ele>
        <time>2002-12-22T11:20:13Z</time>
      </trkpt>
      <trkpt lat="44.448001384735107" lon="10.948991775512695">
        <ele>137</ele>
        <time>2002-12-22T11:20:18Z</time>
      </trkpt>
      <trkpt lat="44.448065841570497" lon="10.949163436889648">
        <ele>136</ele>
        <time>2002-12-22T11:20:23Z</time>
      </trkpt>
      <trkpt lat="44.448602199554443" lon="10.949592590332031">
        <ele>136</ele>
        <time>2002-12-22T11:20:36Z</time>
      </trkpt>
      <trkpt lat="44.448902606964111" lon="10.94991453923285">
        <ele>136</ele>
        <time>2002-12-22T11:20:44Z</time>
      </trkpt>
      <trkpt lat="44.449095726013184" lon="10.950000286102295">
        <ele>136</ele>
        <time>2002-12-22T11:20:49Z</time>
      </trkpt>
      <trkpt lat="44.449203014373779" lon="10.950086116790771">
        <ele>136</ele>
        <time>2002-12-22T11:20:52Z</time>
      </trkpt>
      <trkpt lat="44.449460506439209" lon="10.950429439544678">
        <ele>136</ele>
        <time>2002-12-22T11:21:01Z</time>
      </trkpt>
      <trkpt lat="44.449803829193115" lon="10.951266288757324">
        <ele>136</ele>
        <time>2002-12-22T11:21:16Z</time>
      </trkpt>
      <trkpt lat="44.450211524963379" lon="10.952489376068115">
        <ele>134</ele>
        <time>2002-12-22T11:21:36Z</time>
      </trkpt>
      <trkpt lat="44.450576305389404" lon="10.953519260510802">
        <ele>134</ele>
        <time>2002-12-22T11:21:53Z</time>
      </trkpt>
      <trkpt lat="44.45094108581543" lon="10.953819835558534">
        <ele>135</ele>
        <time>2002-12-22T11:22:04Z</time>
      </trkpt>
      <trkpt lat="44.451305866241455" lon="10.954527938738465">
        <ele>135</ele>
        <time>2002-12-22T11:22:28Z</time>
      </trkpt>
      <trkpt lat="44.451584815979004" lon="10.955493533983827">
        <ele>136</ele>
        <time>2002-12-22T11:22:49Z</time>
      </trkpt>
      <trkpt lat="44.452078258618712" lon="10.957231521606445">
        <ele>135</ele>
        <time>2002-12-22T11:23:16Z</time>
      </trkpt>
      <trkpt lat="44.452207088470459" lon="10.957767963409424">
        <ele>135</ele>
        <time>2002-12-22T11:23:24Z</time>
      </trkpt>
      <trkpt lat="44.452250003814697" lon="10.958411693572998">
        <ele>135</ele>
        <time>2002-12-22T11:23:33Z</time>
      </trkpt>
      <trkpt lat="44.452207088470459" lon="10.958647727966309">
        <ele>134</ele>
        <time>2002-12-22T11:23:37Z</time>
      </trkpt>
      <trkpt lat="44.452142715454102" lon="10.958819389343262">
        <ele>134</ele>
        <time>2002-12-22T11:23:41Z</time>
      </trkpt>
      <trkpt lat="44.45218563079834" lon="10.958969593048096">
        <ele>134</ele>
        <time>2002-12-22T11:23:44Z</time>
      </trkpt>
      <trkpt lat="44.45242166519165" lon="10.959549034014344">
        <ele>133</ele>
        <time>2002-12-22T11:23:54Z</time>
      </trkpt>
      <trkpt lat="44.452400207519531" lon="10.959656238555908">
        <ele>132</ele>
        <time>2002-12-22T11:23:58Z</time>
      </trkpt>
      <trkpt lat="44.452335834503174" lon="10.96036434173584">
        <ele>131</ele>
        <time>2002-12-22T11:24:13Z</time>
      </trkpt>
      <trkpt lat="44.452335834503174" lon="10.961458683013916">
        <ele>130</ele>
        <time>2002-12-22T11:24:38Z</time>
      </trkpt>
      <trkpt lat="44.452700614929199" lon="10.963025093078613">
        <ele>130</ele>
        <time>2002-12-22T11:25:13Z</time>
      </trkpt>
      <trkpt lat="44.452979564666748" lon="10.964291095733643">
        <ele>130</ele>
        <time>2002-12-22T11:25:32Z</time>
      </trkpt>
      <trkpt lat="44.453022480010986" lon="10.964527130126953">
        <ele>130</ele>
        <time>2002-12-22T11:25:35Z</time>
      </trkpt>
      <trkpt lat="44.45317268371582" lon="10.964891910552979">
        <ele>131</ele>
        <time>2002-12-22T11:25:40Z</time>
      </trkpt>
      <trkpt lat="44.453516006469727" lon="10.965728759765625">
        <ele>129</ele>
        <time>2002-12-22T11:25:52Z</time>
      </trkpt>
      <trkpt lat="44.453644836321473" lon="10.965964794158936">
        <ele>130</ele>
        <time>2002-12-22T11:25:56Z</time>
      </trkpt>
      <trkpt lat="44.453709125518799" lon="10.966243660077453">
        <ele>130</ele>
        <time>2002-12-22T11:26:00Z</time>
      </trkpt>
      <trkpt lat="44.453730583190918" lon="10.96660852432251">
        <ele>129</ele>
        <time>2002-12-22T11:26:05Z</time>
      </trkpt>
      <trkpt lat="44.453795040026307" lon="10.96680155955255">
        <ele>128</ele>
        <time>2002-12-22T11:26:09Z</time>
      </trkpt>
      <trkpt lat="44.453859329223633" lon="10.967445373535156">
        <ele>127</ele>
        <time>2002-12-22T11:26:19Z</time>
      </trkpt>
      <trkpt lat="44.453837871551514" lon="10.96860408782959">
        <ele>127</ele>
        <time>2002-12-22T11:26:34Z</time>
      </trkpt>
      <trkpt lat="44.453859329223633" lon="10.96909761428833">
        <ele>127</ele>
        <time>2002-12-22T11:26:40Z</time>
      </trkpt>
      <trkpt lat="44.453837871551514" lon="10.969676971435547">
        <ele>127</ele>
        <time>2002-12-22T11:26:47Z</time>
      </trkpt>
      <trkpt lat="44.453945159912109" lon="10.969913005828857">
        <ele>127</ele>
        <time>2002-12-22T11:26:51Z</time>
      </trkpt>
      <trkpt lat="44.454138278961182" lon="10.970170497894287">
        <ele>127</ele>
        <time>2002-12-22T11:26:56Z</time>
      </trkpt>
      <trkpt lat="44.454224109649658" lon="10.970406532287598">
        <ele>129</ele>
        <time>2002-12-22T11:27:00Z</time>
      </trkpt>
      <trkpt lat="44.454352939501405" lon="10.970685482025146">
        <ele>129</ele>
        <time>2002-12-22T11:27:11Z</time>
      </trkpt>
      <trkpt lat="44.454352939501405" lon="10.970406532287598">
        <ele>130</ele>
        <time>2002-12-22T11:27:19Z</time>
      </trkpt>
    </trkseg>
  </trk>

</gpx>
